<?xml version="1.0" encoding="UTF-8" standalone="no" ?>
<gpx xmlns="http://www.topografix.com/GPX/1/1" xmlns:xsi="http://www.w3.org/2001/XMLSchema-instance" xsi:schemaLocation="http://www.topografix.com/GPX/1/1 http://www.topografix.com/GPX/1/1/gpx.xsd" version="1.1" creator="VisuGPX - https://www.visugpx.com">
  <metadata>
    <name>83 - L - Aups </name>
    <desc><![CDATA[83 - L - Aups : Montagne des Espiguières, la Croix des Pins 2023-02-20]]></desc>
  </metadata>
  <trk>
    <name><![CDATA[Aups Montagne des Espiguières, la Croix des Pins 2023-02-20-01]]></name>
    <trkseg>
      <trkpt lat="43.62635" lon="6.2258">
        <ele>500.3</ele>
        <time>2023-02-20T08:08:42Z</time>
      </trkpt>
      <trkpt lat="43.62635" lon="6.2258">
        <ele>500.3</ele>
        <time>2023-02-20T08:08:43Z</time>
      </trkpt>
      <trkpt lat="43.62639" lon="6.22569">
        <ele>501.8</ele>
        <time>2023-02-20T08:11:34Z</time>
      </trkpt>
      <trkpt lat="43.6264" lon="6.22556">
        <ele>501.7</ele>
        <time>2023-02-20T08:11:54Z</time>
      </trkpt>
      <trkpt lat="43.62631" lon="6.2255">
        <ele>501.6</ele>
        <time>2023-02-20T08:12:03Z</time>
      </trkpt>
      <trkpt lat="43.62622" lon="6.22545">
        <ele>501.8</ele>
        <time>2023-02-20T08:12:11Z</time>
      </trkpt>
      <trkpt lat="43.62628" lon="6.22536">
        <ele>502.6</ele>
        <time>2023-02-20T08:12:33Z</time>
      </trkpt>
      <trkpt lat="43.62634" lon="6.22525">
        <ele>503.6</ele>
        <time>2023-02-20T08:12:59Z</time>
      </trkpt>
      <trkpt lat="43.62642" lon="6.22518">
        <ele>503.9</ele>
        <time>2023-02-20T08:13:11Z</time>
      </trkpt>
      <trkpt lat="43.62647" lon="6.22507">
        <ele>503.8</ele>
        <time>2023-02-20T08:13:25Z</time>
      </trkpt>
      <trkpt lat="43.62655" lon="6.225">
        <ele>504.2</ele>
        <time>2023-02-20T08:13:37Z</time>
      </trkpt>
      <trkpt lat="43.62664" lon="6.22494">
        <ele>504.7</ele>
        <time>2023-02-20T08:13:48Z</time>
      </trkpt>
      <trkpt lat="43.62672" lon="6.22488">
        <ele>505.1</ele>
        <time>2023-02-20T08:13:59Z</time>
      </trkpt>
      <trkpt lat="43.6268" lon="6.22482">
        <ele>505.8</ele>
        <time>2023-02-20T08:14:11Z</time>
      </trkpt>
      <trkpt lat="43.62682" lon="6.22469">
        <ele>506.4</ele>
        <time>2023-02-20T08:14:23Z</time>
      </trkpt>
      <trkpt lat="43.62684" lon="6.22457">
        <ele>508.5</ele>
        <time>2023-02-20T08:15:05Z</time>
      </trkpt>
      <trkpt lat="43.62691" lon="6.22449">
        <ele>507.4</ele>
        <time>2023-02-20T08:15:13Z</time>
      </trkpt>
      <trkpt lat="43.62697" lon="6.22438">
        <ele>507.2</ele>
        <time>2023-02-20T08:15:21Z</time>
      </trkpt>
      <trkpt lat="43.62704" lon="6.22428">
        <ele>507.6</ele>
        <time>2023-02-20T08:15:29Z</time>
      </trkpt>
      <trkpt lat="43.62713" lon="6.22422">
        <ele>508</ele>
        <time>2023-02-20T08:15:38Z</time>
      </trkpt>
      <trkpt lat="43.62722" lon="6.22417">
        <ele>508</ele>
        <time>2023-02-20T08:15:46Z</time>
      </trkpt>
      <trkpt lat="43.62732" lon="6.22416">
        <ele>508</ele>
        <time>2023-02-20T08:15:54Z</time>
      </trkpt>
      <trkpt lat="43.62742" lon="6.22416">
        <ele>508.3</ele>
        <time>2023-02-20T08:16:03Z</time>
      </trkpt>
      <trkpt lat="43.62752" lon="6.22416">
        <ele>508.4</ele>
        <time>2023-02-20T08:16:15Z</time>
      </trkpt>
      <trkpt lat="43.62761" lon="6.22421">
        <ele>508</ele>
        <time>2023-02-20T08:16:27Z</time>
      </trkpt>
      <trkpt lat="43.6277" lon="6.22424">
        <ele>508.4</ele>
        <time>2023-02-20T08:16:42Z</time>
      </trkpt>
      <trkpt lat="43.6278" lon="6.22425">
        <ele>508.7</ele>
        <time>2023-02-20T08:16:50Z</time>
      </trkpt>
      <trkpt lat="43.62789" lon="6.22428">
        <ele>509</ele>
        <time>2023-02-20T08:16:58Z</time>
      </trkpt>
      <trkpt lat="43.62799" lon="6.2243">
        <ele>509.2</ele>
        <time>2023-02-20T08:17:05Z</time>
      </trkpt>
      <trkpt lat="43.62808" lon="6.22435">
        <ele>509.7</ele>
        <time>2023-02-20T08:17:14Z</time>
      </trkpt>
      <trkpt lat="43.62815" lon="6.22444">
        <ele>510.1</ele>
        <time>2023-02-20T08:17:27Z</time>
      </trkpt>
      <trkpt lat="43.62821" lon="6.22454">
        <ele>510.3</ele>
        <time>2023-02-20T08:17:45Z</time>
      </trkpt>
      <trkpt lat="43.62831" lon="6.22465">
        <ele>511</ele>
        <time>2023-02-20T08:17:58Z</time>
      </trkpt>
      <trkpt lat="43.6284" lon="6.22469">
        <ele>511.1</ele>
        <time>2023-02-20T08:18:06Z</time>
      </trkpt>
      <trkpt lat="43.62846" lon="6.22479">
        <ele>512.1</ele>
        <time>2023-02-20T08:18:24Z</time>
      </trkpt>
      <trkpt lat="43.62852" lon="6.22491">
        <ele>512.4</ele>
        <time>2023-02-20T08:18:36Z</time>
      </trkpt>
      <trkpt lat="43.62854" lon="6.22504">
        <ele>513.8</ele>
        <time>2023-02-20T08:18:55Z</time>
      </trkpt>
      <trkpt lat="43.62863" lon="6.22503">
        <ele>514.8</ele>
        <time>2023-02-20T08:19:12Z</time>
      </trkpt>
      <trkpt lat="43.62871" lon="6.22494">
        <ele>515.4</ele>
        <time>2023-02-20T08:19:19Z</time>
      </trkpt>
      <trkpt lat="43.62879" lon="6.22486">
        <ele>515.2</ele>
        <time>2023-02-20T08:19:32Z</time>
      </trkpt>
      <trkpt lat="43.62885" lon="6.22476">
        <ele>517</ele>
        <time>2023-02-20T08:19:45Z</time>
      </trkpt>
      <trkpt lat="43.62893" lon="6.22468">
        <ele>517.2</ele>
        <time>2023-02-20T08:19:52Z</time>
      </trkpt>
      <trkpt lat="43.62901" lon="6.22462">
        <ele>516.9</ele>
        <time>2023-02-20T08:20:07Z</time>
      </trkpt>
      <trkpt lat="43.6291" lon="6.22463">
        <ele>517</ele>
        <time>2023-02-20T08:20:19Z</time>
      </trkpt>
      <trkpt lat="43.62912" lon="6.2245">
        <ele>517.6</ele>
        <time>2023-02-20T08:20:57Z</time>
      </trkpt>
      <trkpt lat="43.62916" lon="6.22438">
        <ele>517.6</ele>
        <time>2023-02-20T08:21:13Z</time>
      </trkpt>
      <trkpt lat="43.62925" lon="6.22437">
        <ele>517.9</ele>
        <time>2023-02-20T08:21:47Z</time>
      </trkpt>
      <trkpt lat="43.62934" lon="6.22438">
        <ele>519.5</ele>
        <time>2023-02-20T08:22:02Z</time>
      </trkpt>
      <trkpt lat="43.62931" lon="6.2245">
        <ele>522</ele>
        <time>2023-02-20T08:22:32Z</time>
      </trkpt>
      <trkpt lat="43.62933" lon="6.22462">
        <ele>522.8</ele>
        <time>2023-02-20T08:22:52Z</time>
      </trkpt>
      <trkpt lat="43.62946" lon="6.22459">
        <ele>526.8</ele>
        <time>2023-02-20T08:23:33Z</time>
      </trkpt>
      <trkpt lat="43.62955" lon="6.22466">
        <ele>527.3</ele>
        <time>2023-02-20T08:23:45Z</time>
      </trkpt>
      <trkpt lat="43.62962" lon="6.22474">
        <ele>528.1</ele>
        <time>2023-02-20T08:23:56Z</time>
      </trkpt>
      <trkpt lat="43.62968" lon="6.22484">
        <ele>528.2</ele>
        <time>2023-02-20T08:24:12Z</time>
      </trkpt>
      <trkpt lat="43.62976" lon="6.22493">
        <ele>530.2</ele>
        <time>2023-02-20T08:24:24Z</time>
      </trkpt>
      <trkpt lat="43.62985" lon="6.22491">
        <ele>530.3</ele>
        <time>2023-02-20T08:24:35Z</time>
      </trkpt>
      <trkpt lat="43.62994" lon="6.22486">
        <ele>529.1</ele>
        <time>2023-02-20T08:24:44Z</time>
      </trkpt>
      <trkpt lat="43.63003" lon="6.22491">
        <ele>529.2</ele>
        <time>2023-02-20T08:24:57Z</time>
      </trkpt>
      <trkpt lat="43.63011" lon="6.22499">
        <ele>528.6</ele>
        <time>2023-02-20T08:25:30Z</time>
      </trkpt>
      <trkpt lat="43.63018" lon="6.22506">
        <ele>528.9</ele>
        <time>2023-02-20T08:25:38Z</time>
      </trkpt>
      <trkpt lat="43.63027" lon="6.2251">
        <ele>529.1</ele>
        <time>2023-02-20T08:25:48Z</time>
      </trkpt>
      <trkpt lat="43.63036" lon="6.22506">
        <ele>529.3</ele>
        <time>2023-02-20T08:26:06Z</time>
      </trkpt>
      <trkpt lat="43.63045" lon="6.22505">
        <ele>528.8</ele>
        <time>2023-02-20T08:26:13Z</time>
      </trkpt>
      <trkpt lat="43.63055" lon="6.22506">
        <ele>529.1</ele>
        <time>2023-02-20T08:26:22Z</time>
      </trkpt>
      <trkpt lat="43.63064" lon="6.22504">
        <ele>529.9</ele>
        <time>2023-02-20T08:26:31Z</time>
      </trkpt>
      <trkpt lat="43.63074" lon="6.22505">
        <ele>529.6</ele>
        <time>2023-02-20T08:26:39Z</time>
      </trkpt>
      <trkpt lat="43.63083" lon="6.22508">
        <ele>529</ele>
        <time>2023-02-20T08:26:46Z</time>
      </trkpt>
      <trkpt lat="43.63093" lon="6.22509">
        <ele>529.4</ele>
        <time>2023-02-20T08:26:54Z</time>
      </trkpt>
      <trkpt lat="43.63103" lon="6.2251">
        <ele>529.3</ele>
        <time>2023-02-20T08:27:01Z</time>
      </trkpt>
      <trkpt lat="43.63112" lon="6.22508">
        <ele>531.4</ele>
        <time>2023-02-20T08:27:11Z</time>
      </trkpt>
      <trkpt lat="43.63122" lon="6.22506">
        <ele>531.4</ele>
        <time>2023-02-20T08:27:23Z</time>
      </trkpt>
      <trkpt lat="43.63131" lon="6.22501">
        <ele>531.8</ele>
        <time>2023-02-20T08:27:36Z</time>
      </trkpt>
      <trkpt lat="43.63139" lon="6.22496">
        <ele>532.8</ele>
        <time>2023-02-20T08:27:47Z</time>
      </trkpt>
      <trkpt lat="43.63148" lon="6.22492">
        <ele>533.3</ele>
        <time>2023-02-20T08:27:57Z</time>
      </trkpt>
      <trkpt lat="43.63156" lon="6.22486">
        <ele>534</ele>
        <time>2023-02-20T08:28:10Z</time>
      </trkpt>
      <trkpt lat="43.63166" lon="6.22481">
        <ele>534.8</ele>
        <time>2023-02-20T08:28:23Z</time>
      </trkpt>
      <trkpt lat="43.63175" lon="6.22477">
        <ele>535.4</ele>
        <time>2023-02-20T08:28:35Z</time>
      </trkpt>
      <trkpt lat="43.63184" lon="6.22474">
        <ele>535.6</ele>
        <time>2023-02-20T08:28:39Z</time>
      </trkpt>
      <trkpt lat="43.63193" lon="6.22469">
        <ele>535.3</ele>
        <time>2023-02-20T08:28:47Z</time>
      </trkpt>
      <trkpt lat="43.63202" lon="6.22464">
        <ele>536.1</ele>
        <time>2023-02-20T08:28:54Z</time>
      </trkpt>
      <trkpt lat="43.63211" lon="6.2246">
        <ele>537.5</ele>
        <time>2023-02-20T08:29:03Z</time>
      </trkpt>
      <trkpt lat="43.6322" lon="6.22454">
        <ele>539.5</ele>
        <time>2023-02-20T08:29:11Z</time>
      </trkpt>
      <trkpt lat="43.63229" lon="6.22451">
        <ele>539.8</ele>
        <time>2023-02-20T08:29:20Z</time>
      </trkpt>
      <trkpt lat="43.63238" lon="6.22448">
        <ele>540.4</ele>
        <time>2023-02-20T08:29:29Z</time>
      </trkpt>
      <trkpt lat="43.63248" lon="6.22447">
        <ele>540.4</ele>
        <time>2023-02-20T08:29:38Z</time>
      </trkpt>
      <trkpt lat="43.63257" lon="6.22448">
        <ele>541.4</ele>
        <time>2023-02-20T08:29:48Z</time>
      </trkpt>
      <trkpt lat="43.63267" lon="6.22449">
        <ele>542.6</ele>
        <time>2023-02-20T08:29:59Z</time>
      </trkpt>
      <trkpt lat="43.63277" lon="6.2245">
        <ele>542.7</ele>
        <time>2023-02-20T08:30:11Z</time>
      </trkpt>
      <trkpt lat="43.63286" lon="6.22451">
        <ele>544.2</ele>
        <time>2023-02-20T08:30:25Z</time>
      </trkpt>
      <trkpt lat="43.63295" lon="6.22455">
        <ele>544.5</ele>
        <time>2023-02-20T08:30:34Z</time>
      </trkpt>
      <trkpt lat="43.63303" lon="6.2246">
        <ele>545.5</ele>
        <time>2023-02-20T08:30:44Z</time>
      </trkpt>
      <trkpt lat="43.63311" lon="6.22467">
        <ele>546.5</ele>
        <time>2023-02-20T08:30:52Z</time>
      </trkpt>
      <trkpt lat="43.63319" lon="6.22474">
        <ele>547.3</ele>
        <time>2023-02-20T08:31:02Z</time>
      </trkpt>
      <trkpt lat="43.63326" lon="6.22483">
        <ele>549.1</ele>
        <time>2023-02-20T08:31:17Z</time>
      </trkpt>
      <trkpt lat="43.63333" lon="6.22489">
        <ele>551.5</ele>
        <time>2023-02-20T08:31:33Z</time>
      </trkpt>
      <trkpt lat="43.63342" lon="6.22496">
        <ele>550.4</ele>
        <time>2023-02-20T08:31:44Z</time>
      </trkpt>
      <trkpt lat="43.63351" lon="6.22498">
        <ele>551.8</ele>
        <time>2023-02-20T08:31:56Z</time>
      </trkpt>
      <trkpt lat="43.63361" lon="6.22497">
        <ele>553.7</ele>
        <time>2023-02-20T08:32:11Z</time>
      </trkpt>
      <trkpt lat="43.6337" lon="6.22496">
        <ele>554.8</ele>
        <time>2023-02-20T08:32:24Z</time>
      </trkpt>
      <trkpt lat="43.63379" lon="6.22499">
        <ele>555.4</ele>
        <time>2023-02-20T08:32:36Z</time>
      </trkpt>
      <trkpt lat="43.63388" lon="6.22495">
        <ele>557</ele>
        <time>2023-02-20T08:33:29Z</time>
      </trkpt>
      <trkpt lat="43.63382" lon="6.22505">
        <ele>557.5</ele>
        <time>2023-02-20T08:35:07Z</time>
      </trkpt>
      <trkpt lat="43.63373" lon="6.22511">
        <ele>558.6</ele>
        <time>2023-02-20T08:35:42Z</time>
      </trkpt>
      <trkpt lat="43.63366" lon="6.2252">
        <ele>559.8</ele>
        <time>2023-02-20T08:36:02Z</time>
      </trkpt>
      <trkpt lat="43.63362" lon="6.22531">
        <ele>560.5</ele>
        <time>2023-02-20T08:36:11Z</time>
      </trkpt>
      <trkpt lat="43.63357" lon="6.22542">
        <ele>562.2</ele>
        <time>2023-02-20T08:36:24Z</time>
      </trkpt>
      <trkpt lat="43.6335" lon="6.22551">
        <ele>563.2</ele>
        <time>2023-02-20T08:36:35Z</time>
      </trkpt>
      <trkpt lat="43.6335" lon="6.22563">
        <ele>564.2</ele>
        <time>2023-02-20T08:36:43Z</time>
      </trkpt>
      <trkpt lat="43.63349" lon="6.22577">
        <ele>565.3</ele>
        <time>2023-02-20T08:36:53Z</time>
      </trkpt>
      <trkpt lat="43.6335" lon="6.2259">
        <ele>566.4</ele>
        <time>2023-02-20T08:37:03Z</time>
      </trkpt>
      <trkpt lat="43.63354" lon="6.22602">
        <ele>567.4</ele>
        <time>2023-02-20T08:37:13Z</time>
      </trkpt>
      <trkpt lat="43.63359" lon="6.22613">
        <ele>569</ele>
        <time>2023-02-20T08:37:23Z</time>
      </trkpt>
      <trkpt lat="43.63363" lon="6.22624">
        <ele>569.1</ele>
        <time>2023-02-20T08:37:34Z</time>
      </trkpt>
      <trkpt lat="43.63368" lon="6.22636">
        <ele>572</ele>
        <time>2023-02-20T08:37:47Z</time>
      </trkpt>
      <trkpt lat="43.63372" lon="6.22647">
        <ele>572.4</ele>
        <time>2023-02-20T08:37:58Z</time>
      </trkpt>
      <trkpt lat="43.63377" lon="6.22658">
        <ele>572.9</ele>
        <time>2023-02-20T08:38:09Z</time>
      </trkpt>
      <trkpt lat="43.63382" lon="6.22669">
        <ele>573.7</ele>
        <time>2023-02-20T08:38:20Z</time>
      </trkpt>
      <trkpt lat="43.63387" lon="6.22679">
        <ele>575.5</ele>
        <time>2023-02-20T08:38:45Z</time>
      </trkpt>
      <trkpt lat="43.63391" lon="6.22691">
        <ele>575.9</ele>
        <time>2023-02-20T08:38:56Z</time>
      </trkpt>
      <trkpt lat="43.63393" lon="6.22704">
        <ele>576.9</ele>
        <time>2023-02-20T08:39:07Z</time>
      </trkpt>
      <trkpt lat="43.63395" lon="6.22716">
        <ele>577.8</ele>
        <time>2023-02-20T08:39:18Z</time>
      </trkpt>
      <trkpt lat="43.63396" lon="6.22729">
        <ele>578.6</ele>
        <time>2023-02-20T08:39:28Z</time>
      </trkpt>
      <trkpt lat="43.63398" lon="6.22742">
        <ele>579.6</ele>
        <time>2023-02-20T08:39:39Z</time>
      </trkpt>
      <trkpt lat="43.63399" lon="6.22756">
        <ele>580.8</ele>
        <time>2023-02-20T08:39:51Z</time>
      </trkpt>
      <trkpt lat="43.63401" lon="6.22768">
        <ele>581.6</ele>
        <time>2023-02-20T08:40:01Z</time>
      </trkpt>
      <trkpt lat="43.63407" lon="6.2278">
        <ele>582.6</ele>
        <time>2023-02-20T08:40:12Z</time>
      </trkpt>
      <trkpt lat="43.63412" lon="6.2279">
        <ele>583</ele>
        <time>2023-02-20T08:40:22Z</time>
      </trkpt>
      <trkpt lat="43.63418" lon="6.22799">
        <ele>583.8</ele>
        <time>2023-02-20T08:40:34Z</time>
      </trkpt>
      <trkpt lat="43.63425" lon="6.22808">
        <ele>584.7</ele>
        <time>2023-02-20T08:40:45Z</time>
      </trkpt>
      <trkpt lat="43.63432" lon="6.22817">
        <ele>585.5</ele>
        <time>2023-02-20T08:40:54Z</time>
      </trkpt>
      <trkpt lat="43.63439" lon="6.22825">
        <ele>586.4</ele>
        <time>2023-02-20T08:41:03Z</time>
      </trkpt>
      <trkpt lat="43.63445" lon="6.22835">
        <ele>587.1</ele>
        <time>2023-02-20T08:41:14Z</time>
      </trkpt>
      <trkpt lat="43.63451" lon="6.22846">
        <ele>588</ele>
        <time>2023-02-20T08:41:24Z</time>
      </trkpt>
      <trkpt lat="43.63456" lon="6.22857">
        <ele>589</ele>
        <time>2023-02-20T08:41:35Z</time>
      </trkpt>
      <trkpt lat="43.63462" lon="6.22867">
        <ele>590.1</ele>
        <time>2023-02-20T08:41:47Z</time>
      </trkpt>
      <trkpt lat="43.63469" lon="6.22876">
        <ele>591.1</ele>
        <time>2023-02-20T08:41:59Z</time>
      </trkpt>
      <trkpt lat="43.63475" lon="6.22885">
        <ele>591.6</ele>
        <time>2023-02-20T08:42:12Z</time>
      </trkpt>
      <trkpt lat="43.63483" lon="6.22892">
        <ele>592.3</ele>
        <time>2023-02-20T08:42:24Z</time>
      </trkpt>
      <trkpt lat="43.63491" lon="6.22899">
        <ele>592.5</ele>
        <time>2023-02-20T08:42:33Z</time>
      </trkpt>
      <trkpt lat="43.63498" lon="6.22908">
        <ele>592.8</ele>
        <time>2023-02-20T08:42:42Z</time>
      </trkpt>
      <trkpt lat="43.63506" lon="6.22915">
        <ele>593.8</ele>
        <time>2023-02-20T08:43:08Z</time>
      </trkpt>
      <trkpt lat="43.63513" lon="6.22922">
        <ele>593.9</ele>
        <time>2023-02-20T08:43:17Z</time>
      </trkpt>
      <trkpt lat="43.6352" lon="6.22931">
        <ele>594.5</ele>
        <time>2023-02-20T08:43:28Z</time>
      </trkpt>
      <trkpt lat="43.63528" lon="6.22936">
        <ele>595</ele>
        <time>2023-02-20T08:43:41Z</time>
      </trkpt>
      <trkpt lat="43.63534" lon="6.22946">
        <ele>595.8</ele>
        <time>2023-02-20T08:44:05Z</time>
      </trkpt>
      <trkpt lat="43.6354" lon="6.22955">
        <ele>596</ele>
        <time>2023-02-20T08:44:18Z</time>
      </trkpt>
      <trkpt lat="43.63548" lon="6.22961">
        <ele>596.6</ele>
        <time>2023-02-20T08:44:28Z</time>
      </trkpt>
      <trkpt lat="43.63556" lon="6.22967">
        <ele>597.8</ele>
        <time>2023-02-20T08:44:40Z</time>
      </trkpt>
      <trkpt lat="43.63566" lon="6.22971">
        <ele>598.7</ele>
        <time>2023-02-20T08:44:49Z</time>
      </trkpt>
      <trkpt lat="43.63574" lon="6.22975">
        <ele>599</ele>
        <time>2023-02-20T08:44:57Z</time>
      </trkpt>
      <trkpt lat="43.63584" lon="6.22979">
        <ele>600</ele>
        <time>2023-02-20T08:45:09Z</time>
      </trkpt>
      <trkpt lat="43.63593" lon="6.22982">
        <ele>600.8</ele>
        <time>2023-02-20T08:45:20Z</time>
      </trkpt>
      <trkpt lat="43.63603" lon="6.22987">
        <ele>601.5</ele>
        <time>2023-02-20T08:45:30Z</time>
      </trkpt>
      <trkpt lat="43.63612" lon="6.2299">
        <ele>602.5</ele>
        <time>2023-02-20T08:45:42Z</time>
      </trkpt>
      <trkpt lat="43.63621" lon="6.22993">
        <ele>603.2</ele>
        <time>2023-02-20T08:45:51Z</time>
      </trkpt>
      <trkpt lat="43.63629" lon="6.23">
        <ele>603.6</ele>
        <time>2023-02-20T08:46:00Z</time>
      </trkpt>
      <trkpt lat="43.63637" lon="6.23006">
        <ele>604.4</ele>
        <time>2023-02-20T08:46:11Z</time>
      </trkpt>
      <trkpt lat="43.63644" lon="6.23013">
        <ele>605.3</ele>
        <time>2023-02-20T08:46:21Z</time>
      </trkpt>
      <trkpt lat="43.63651" lon="6.23021">
        <ele>607.1</ele>
        <time>2023-02-20T08:46:34Z</time>
      </trkpt>
      <trkpt lat="43.6366" lon="6.23028">
        <ele>607.8</ele>
        <time>2023-02-20T08:47:01Z</time>
      </trkpt>
      <trkpt lat="43.63669" lon="6.2303">
        <ele>608.4</ele>
        <time>2023-02-20T08:47:12Z</time>
      </trkpt>
      <trkpt lat="43.63679" lon="6.23034">
        <ele>609</ele>
        <time>2023-02-20T08:47:23Z</time>
      </trkpt>
      <trkpt lat="43.63687" lon="6.2304">
        <ele>609.9</ele>
        <time>2023-02-20T08:47:39Z</time>
      </trkpt>
      <trkpt lat="43.63696" lon="6.23046">
        <ele>610.5</ele>
        <time>2023-02-20T08:47:52Z</time>
      </trkpt>
      <trkpt lat="43.63702" lon="6.23054">
        <ele>610</ele>
        <time>2023-02-20T08:48:02Z</time>
      </trkpt>
      <trkpt lat="43.6371" lon="6.23062">
        <ele>610.7</ele>
        <time>2023-02-20T08:48:13Z</time>
      </trkpt>
      <trkpt lat="43.63719" lon="6.23068">
        <ele>611.3</ele>
        <time>2023-02-20T08:48:23Z</time>
      </trkpt>
      <trkpt lat="43.63728" lon="6.23072">
        <ele>612.1</ele>
        <time>2023-02-20T08:48:35Z</time>
      </trkpt>
      <trkpt lat="43.63737" lon="6.23074">
        <ele>612.4</ele>
        <time>2023-02-20T08:48:44Z</time>
      </trkpt>
      <trkpt lat="43.63746" lon="6.23075">
        <ele>612.9</ele>
        <time>2023-02-20T08:49:09Z</time>
      </trkpt>
      <trkpt lat="43.63756" lon="6.23074">
        <ele>613.2</ele>
        <time>2023-02-20T08:50:08Z</time>
      </trkpt>
      <trkpt lat="43.63765" lon="6.23074">
        <ele>613.4</ele>
        <time>2023-02-20T08:50:22Z</time>
      </trkpt>
      <trkpt lat="43.63775" lon="6.23076">
        <ele>613.9</ele>
        <time>2023-02-20T08:50:53Z</time>
      </trkpt>
      <trkpt lat="43.63784" lon="6.23082">
        <ele>615.1</ele>
        <time>2023-02-20T08:51:20Z</time>
      </trkpt>
      <trkpt lat="43.63794" lon="6.23081">
        <ele>614.9</ele>
        <time>2023-02-20T08:51:30Z</time>
      </trkpt>
      <trkpt lat="43.63803" lon="6.23084">
        <ele>614.7</ele>
        <time>2023-02-20T08:51:39Z</time>
      </trkpt>
      <trkpt lat="43.63812" lon="6.23087">
        <ele>614.7</ele>
        <time>2023-02-20T08:51:48Z</time>
      </trkpt>
      <trkpt lat="43.63822" lon="6.23092">
        <ele>614</ele>
        <time>2023-02-20T08:51:56Z</time>
      </trkpt>
      <trkpt lat="43.63831" lon="6.23095">
        <ele>614.8</ele>
        <time>2023-02-20T08:52:06Z</time>
      </trkpt>
      <trkpt lat="43.63839" lon="6.231">
        <ele>615.2</ele>
        <time>2023-02-20T08:52:17Z</time>
      </trkpt>
      <trkpt lat="43.63848" lon="6.23103">
        <ele>615.3</ele>
        <time>2023-02-20T08:52:31Z</time>
      </trkpt>
      <trkpt lat="43.63857" lon="6.23105">
        <ele>615.1</ele>
        <time>2023-02-20T08:52:42Z</time>
      </trkpt>
      <trkpt lat="43.63866" lon="6.23107">
        <ele>615</ele>
        <time>2023-02-20T08:52:51Z</time>
      </trkpt>
      <trkpt lat="43.63876" lon="6.2311">
        <ele>615.1</ele>
        <time>2023-02-20T08:52:59Z</time>
      </trkpt>
      <trkpt lat="43.63886" lon="6.2311">
        <ele>615.1</ele>
        <time>2023-02-20T08:53:07Z</time>
      </trkpt>
      <trkpt lat="43.63895" lon="6.23106">
        <ele>615.5</ele>
        <time>2023-02-20T08:53:16Z</time>
      </trkpt>
      <trkpt lat="43.63904" lon="6.23105">
        <ele>616.2</ele>
        <time>2023-02-20T08:53:28Z</time>
      </trkpt>
      <trkpt lat="43.63913" lon="6.23104">
        <ele>617</ele>
        <time>2023-02-20T08:53:38Z</time>
      </trkpt>
      <trkpt lat="43.63922" lon="6.23106">
        <ele>617.5</ele>
        <time>2023-02-20T08:53:46Z</time>
      </trkpt>
      <trkpt lat="43.63932" lon="6.23108">
        <ele>618.3</ele>
        <time>2023-02-20T08:53:55Z</time>
      </trkpt>
      <trkpt lat="43.63943" lon="6.23108">
        <ele>618.8</ele>
        <time>2023-02-20T08:54:05Z</time>
      </trkpt>
      <trkpt lat="43.63952" lon="6.2311">
        <ele>619.2</ele>
        <time>2023-02-20T08:54:12Z</time>
      </trkpt>
      <trkpt lat="43.63962" lon="6.23113">
        <ele>619.4</ele>
        <time>2023-02-20T08:54:22Z</time>
      </trkpt>
      <trkpt lat="43.63972" lon="6.23116">
        <ele>619.7</ele>
        <time>2023-02-20T08:54:30Z</time>
      </trkpt>
      <trkpt lat="43.6398" lon="6.23119">
        <ele>619.4</ele>
        <time>2023-02-20T08:54:41Z</time>
      </trkpt>
      <trkpt lat="43.63989" lon="6.23125">
        <ele>619.3</ele>
        <time>2023-02-20T08:54:52Z</time>
      </trkpt>
      <trkpt lat="43.63998" lon="6.23127">
        <ele>619.1</ele>
        <time>2023-02-20T08:55:43Z</time>
      </trkpt>
      <trkpt lat="43.64008" lon="6.23131">
        <ele>619.7</ele>
        <time>2023-02-20T08:55:54Z</time>
      </trkpt>
      <trkpt lat="43.64017" lon="6.23134">
        <ele>619.4</ele>
        <time>2023-02-20T08:56:05Z</time>
      </trkpt>
      <trkpt lat="43.64025" lon="6.23136">
        <ele>619.8</ele>
        <time>2023-02-20T08:56:17Z</time>
      </trkpt>
      <trkpt lat="43.64034" lon="6.23139">
        <ele>620.1</ele>
        <time>2023-02-20T08:56:26Z</time>
      </trkpt>
      <trkpt lat="43.64043" lon="6.23142">
        <ele>620.4</ele>
        <time>2023-02-20T08:56:36Z</time>
      </trkpt>
      <trkpt lat="43.64053" lon="6.23145">
        <ele>620.8</ele>
        <time>2023-02-20T08:56:46Z</time>
      </trkpt>
      <trkpt lat="43.64062" lon="6.23149">
        <ele>621.5</ele>
        <time>2023-02-20T08:56:55Z</time>
      </trkpt>
      <trkpt lat="43.6407" lon="6.23154">
        <ele>622</ele>
        <time>2023-02-20T08:57:03Z</time>
      </trkpt>
      <trkpt lat="43.64079" lon="6.23159">
        <ele>622.8</ele>
        <time>2023-02-20T08:57:11Z</time>
      </trkpt>
      <trkpt lat="43.64088" lon="6.23165">
        <ele>623.2</ele>
        <time>2023-02-20T08:57:21Z</time>
      </trkpt>
      <trkpt lat="43.64097" lon="6.23169">
        <ele>623.8</ele>
        <time>2023-02-20T08:57:31Z</time>
      </trkpt>
      <trkpt lat="43.64106" lon="6.23171">
        <ele>623.9</ele>
        <time>2023-02-20T08:57:40Z</time>
      </trkpt>
      <trkpt lat="43.64115" lon="6.2317">
        <ele>624.1</ele>
        <time>2023-02-20T08:57:49Z</time>
      </trkpt>
      <trkpt lat="43.64124" lon="6.23172">
        <ele>625</ele>
        <time>2023-02-20T08:58:01Z</time>
      </trkpt>
      <trkpt lat="43.64132" lon="6.2318">
        <ele>625.6</ele>
        <time>2023-02-20T08:58:11Z</time>
      </trkpt>
      <trkpt lat="43.6414" lon="6.23189">
        <ele>626.3</ele>
        <time>2023-02-20T08:58:22Z</time>
      </trkpt>
      <trkpt lat="43.64148" lon="6.23196">
        <ele>626.3</ele>
        <time>2023-02-20T08:58:33Z</time>
      </trkpt>
      <trkpt lat="43.64155" lon="6.23206">
        <ele>627.4</ele>
        <time>2023-02-20T08:58:44Z</time>
      </trkpt>
      <trkpt lat="43.64162" lon="6.23216">
        <ele>628</ele>
        <time>2023-02-20T08:58:55Z</time>
      </trkpt>
      <trkpt lat="43.64167" lon="6.23226">
        <ele>628.9</ele>
        <time>2023-02-20T08:59:05Z</time>
      </trkpt>
      <trkpt lat="43.64171" lon="6.23237">
        <ele>629.8</ele>
        <time>2023-02-20T08:59:14Z</time>
      </trkpt>
      <trkpt lat="43.64176" lon="6.23247">
        <ele>630.1</ele>
        <time>2023-02-20T08:59:25Z</time>
      </trkpt>
      <trkpt lat="43.64183" lon="6.23256">
        <ele>630.5</ele>
        <time>2023-02-20T08:59:35Z</time>
      </trkpt>
      <trkpt lat="43.64189" lon="6.23266">
        <ele>631.2</ele>
        <time>2023-02-20T08:59:45Z</time>
      </trkpt>
      <trkpt lat="43.64196" lon="6.23275">
        <ele>631.7</ele>
        <time>2023-02-20T08:59:56Z</time>
      </trkpt>
      <trkpt lat="43.64203" lon="6.23282">
        <ele>631.9</ele>
        <time>2023-02-20T09:00:06Z</time>
      </trkpt>
      <trkpt lat="43.64212" lon="6.23287">
        <ele>631.9</ele>
        <time>2023-02-20T09:00:16Z</time>
      </trkpt>
      <trkpt lat="43.64221" lon="6.23291">
        <ele>631.8</ele>
        <time>2023-02-20T09:00:26Z</time>
      </trkpt>
      <trkpt lat="43.6423" lon="6.23295">
        <ele>631.4</ele>
        <time>2023-02-20T09:00:37Z</time>
      </trkpt>
      <trkpt lat="43.6424" lon="6.23297">
        <ele>630.9</ele>
        <time>2023-02-20T09:00:47Z</time>
      </trkpt>
      <trkpt lat="43.64249" lon="6.233">
        <ele>630.3</ele>
        <time>2023-02-20T09:00:56Z</time>
      </trkpt>
      <trkpt lat="43.64256" lon="6.23306">
        <ele>630</ele>
        <time>2023-02-20T09:01:06Z</time>
      </trkpt>
      <trkpt lat="43.64263" lon="6.23314">
        <ele>629.1</ele>
        <time>2023-02-20T09:01:18Z</time>
      </trkpt>
      <trkpt lat="43.6427" lon="6.23324">
        <ele>629.7</ele>
        <time>2023-02-20T09:01:45Z</time>
      </trkpt>
      <trkpt lat="43.64275" lon="6.23334">
        <ele>628.9</ele>
        <time>2023-02-20T09:01:54Z</time>
      </trkpt>
      <trkpt lat="43.6428" lon="6.23344">
        <ele>627.5</ele>
        <time>2023-02-20T09:02:05Z</time>
      </trkpt>
      <trkpt lat="43.64286" lon="6.23356">
        <ele>626.3</ele>
        <time>2023-02-20T09:02:16Z</time>
      </trkpt>
      <trkpt lat="43.64292" lon="6.23365">
        <ele>626.4</ele>
        <time>2023-02-20T09:02:26Z</time>
      </trkpt>
      <trkpt lat="43.64298" lon="6.23375">
        <ele>625.5</ele>
        <time>2023-02-20T09:02:37Z</time>
      </trkpt>
      <trkpt lat="43.64303" lon="6.23385">
        <ele>624.8</ele>
        <time>2023-02-20T09:02:46Z</time>
      </trkpt>
      <trkpt lat="43.64306" lon="6.23397">
        <ele>624.1</ele>
        <time>2023-02-20T09:02:55Z</time>
      </trkpt>
      <trkpt lat="43.64307" lon="6.23411">
        <ele>623.5</ele>
        <time>2023-02-20T09:03:06Z</time>
      </trkpt>
      <trkpt lat="43.64307" lon="6.23424">
        <ele>623.1</ele>
        <time>2023-02-20T09:03:16Z</time>
      </trkpt>
      <trkpt lat="43.64306" lon="6.23437">
        <ele>622.2</ele>
        <time>2023-02-20T09:03:27Z</time>
      </trkpt>
      <trkpt lat="43.64307" lon="6.23451">
        <ele>621.1</ele>
        <time>2023-02-20T09:03:37Z</time>
      </trkpt>
      <trkpt lat="43.64308" lon="6.23464">
        <ele>620.6</ele>
        <time>2023-02-20T09:03:48Z</time>
      </trkpt>
      <trkpt lat="43.64312" lon="6.23476">
        <ele>620.1</ele>
        <time>2023-02-20T09:03:58Z</time>
      </trkpt>
      <trkpt lat="43.64314" lon="6.23489">
        <ele>619.3</ele>
        <time>2023-02-20T09:04:08Z</time>
      </trkpt>
      <trkpt lat="43.64316" lon="6.23503">
        <ele>618.6</ele>
        <time>2023-02-20T09:04:20Z</time>
      </trkpt>
      <trkpt lat="43.64318" lon="6.23516">
        <ele>618</ele>
        <time>2023-02-20T09:04:30Z</time>
      </trkpt>
      <trkpt lat="43.64318" lon="6.23529">
        <ele>617.3</ele>
        <time>2023-02-20T09:04:42Z</time>
      </trkpt>
      <trkpt lat="43.6432" lon="6.23542">
        <ele>617</ele>
        <time>2023-02-20T09:04:53Z</time>
      </trkpt>
      <trkpt lat="43.6432" lon="6.23555">
        <ele>616.5</ele>
        <time>2023-02-20T09:05:03Z</time>
      </trkpt>
      <trkpt lat="43.64322" lon="6.23567">
        <ele>615.6</ele>
        <time>2023-02-20T09:05:13Z</time>
      </trkpt>
      <trkpt lat="43.64322" lon="6.2358">
        <ele>615.1</ele>
        <time>2023-02-20T09:05:24Z</time>
      </trkpt>
      <trkpt lat="43.64323" lon="6.23593">
        <ele>615.5</ele>
        <time>2023-02-20T09:05:37Z</time>
      </trkpt>
      <trkpt lat="43.64326" lon="6.23605">
        <ele>614.9</ele>
        <time>2023-02-20T09:05:47Z</time>
      </trkpt>
      <trkpt lat="43.64329" lon="6.23617">
        <ele>615</ele>
        <time>2023-02-20T09:05:57Z</time>
      </trkpt>
      <trkpt lat="43.64333" lon="6.23629">
        <ele>614.9</ele>
        <time>2023-02-20T09:06:06Z</time>
      </trkpt>
      <trkpt lat="43.64336" lon="6.23641">
        <ele>615.3</ele>
        <time>2023-02-20T09:06:16Z</time>
      </trkpt>
      <trkpt lat="43.64343" lon="6.23651">
        <ele>615.8</ele>
        <time>2023-02-20T09:06:28Z</time>
      </trkpt>
      <trkpt lat="43.64349" lon="6.23661">
        <ele>616.1</ele>
        <time>2023-02-20T09:06:40Z</time>
      </trkpt>
      <trkpt lat="43.64356" lon="6.23669">
        <ele>616.2</ele>
        <time>2023-02-20T09:06:51Z</time>
      </trkpt>
      <trkpt lat="43.64365" lon="6.23673">
        <ele>616.2</ele>
        <time>2023-02-20T09:06:59Z</time>
      </trkpt>
      <trkpt lat="43.64375" lon="6.23676">
        <ele>616.2</ele>
        <time>2023-02-20T09:07:06Z</time>
      </trkpt>
      <trkpt lat="43.64385" lon="6.23678">
        <ele>616.1</ele>
        <time>2023-02-20T09:07:15Z</time>
      </trkpt>
      <trkpt lat="43.64394" lon="6.23682">
        <ele>615.5</ele>
        <time>2023-02-20T09:07:28Z</time>
      </trkpt>
      <trkpt lat="43.64404" lon="6.23683">
        <ele>615.6</ele>
        <time>2023-02-20T09:07:40Z</time>
      </trkpt>
      <trkpt lat="43.64413" lon="6.23685">
        <ele>615.4</ele>
        <time>2023-02-20T09:07:52Z</time>
      </trkpt>
      <trkpt lat="43.64423" lon="6.23685">
        <ele>615.1</ele>
        <time>2023-02-20T09:08:02Z</time>
      </trkpt>
      <trkpt lat="43.64431" lon="6.23691">
        <ele>615.4</ele>
        <time>2023-02-20T09:09:31Z</time>
      </trkpt>
      <trkpt lat="43.64441" lon="6.23692">
        <ele>613.8</ele>
        <time>2023-02-20T09:11:28Z</time>
      </trkpt>
      <trkpt lat="43.64448" lon="6.237">
        <ele>613.2</ele>
        <time>2023-02-20T09:11:42Z</time>
      </trkpt>
      <trkpt lat="43.64453" lon="6.23712">
        <ele>613.5</ele>
        <time>2023-02-20T09:11:52Z</time>
      </trkpt>
      <trkpt lat="43.64459" lon="6.23721">
        <ele>613.6</ele>
        <time>2023-02-20T09:12:07Z</time>
      </trkpt>
      <trkpt lat="43.64465" lon="6.23731">
        <ele>613.6</ele>
        <time>2023-02-20T09:12:16Z</time>
      </trkpt>
      <trkpt lat="43.64472" lon="6.23741">
        <ele>614</ele>
        <time>2023-02-20T09:12:26Z</time>
      </trkpt>
      <trkpt lat="43.6448" lon="6.23748">
        <ele>613.9</ele>
        <time>2023-02-20T09:12:34Z</time>
      </trkpt>
      <trkpt lat="43.64487" lon="6.23757">
        <ele>614.3</ele>
        <time>2023-02-20T09:12:41Z</time>
      </trkpt>
      <trkpt lat="43.6449" lon="6.2377">
        <ele>615.4</ele>
        <time>2023-02-20T09:12:51Z</time>
      </trkpt>
      <trkpt lat="43.6449" lon="6.23783">
        <ele>616.2</ele>
        <time>2023-02-20T09:13:01Z</time>
      </trkpt>
      <trkpt lat="43.64486" lon="6.23795">
        <ele>616.5</ele>
        <time>2023-02-20T09:13:10Z</time>
      </trkpt>
      <trkpt lat="43.6448" lon="6.23805">
        <ele>617.3</ele>
        <time>2023-02-20T09:13:20Z</time>
      </trkpt>
      <trkpt lat="43.64471" lon="6.23811">
        <ele>618.1</ele>
        <time>2023-02-20T09:13:31Z</time>
      </trkpt>
      <trkpt lat="43.64461" lon="6.23809">
        <ele>618.9</ele>
        <time>2023-02-20T09:13:43Z</time>
      </trkpt>
      <trkpt lat="43.64452" lon="6.23806">
        <ele>619.3</ele>
        <time>2023-02-20T09:13:53Z</time>
      </trkpt>
      <trkpt lat="43.64442" lon="6.23804">
        <ele>619.7</ele>
        <time>2023-02-20T09:14:04Z</time>
      </trkpt>
      <trkpt lat="43.64433" lon="6.23805">
        <ele>620.2</ele>
        <time>2023-02-20T09:14:12Z</time>
      </trkpt>
      <trkpt lat="43.64424" lon="6.23806">
        <ele>620.6</ele>
        <time>2023-02-20T09:14:22Z</time>
      </trkpt>
      <trkpt lat="43.64415" lon="6.2381">
        <ele>620.7</ele>
        <time>2023-02-20T09:14:33Z</time>
      </trkpt>
      <trkpt lat="43.64408" lon="6.23817">
        <ele>621.1</ele>
        <time>2023-02-20T09:14:44Z</time>
      </trkpt>
      <trkpt lat="43.64399" lon="6.23824">
        <ele>621.7</ele>
        <time>2023-02-20T09:14:55Z</time>
      </trkpt>
      <trkpt lat="43.64391" lon="6.23832">
        <ele>622</ele>
        <time>2023-02-20T09:15:06Z</time>
      </trkpt>
      <trkpt lat="43.64389" lon="6.23845">
        <ele>622.5</ele>
        <time>2023-02-20T09:15:17Z</time>
      </trkpt>
      <trkpt lat="43.64382" lon="6.23853">
        <ele>623.4</ele>
        <time>2023-02-20T09:15:35Z</time>
      </trkpt>
      <trkpt lat="43.64374" lon="6.23858">
        <ele>623.6</ele>
        <time>2023-02-20T09:15:45Z</time>
      </trkpt>
      <trkpt lat="43.64366" lon="6.23866">
        <ele>623.9</ele>
        <time>2023-02-20T09:15:55Z</time>
      </trkpt>
      <trkpt lat="43.64358" lon="6.23873">
        <ele>624.3</ele>
        <time>2023-02-20T09:16:04Z</time>
      </trkpt>
      <trkpt lat="43.6435" lon="6.23879">
        <ele>624.2</ele>
        <time>2023-02-20T09:16:16Z</time>
      </trkpt>
      <trkpt lat="43.64342" lon="6.23884">
        <ele>624.6</ele>
        <time>2023-02-20T09:16:26Z</time>
      </trkpt>
      <trkpt lat="43.64335" lon="6.23892">
        <ele>624.7</ele>
        <time>2023-02-20T09:16:36Z</time>
      </trkpt>
      <trkpt lat="43.64328" lon="6.23901">
        <ele>625.3</ele>
        <time>2023-02-20T09:16:45Z</time>
      </trkpt>
      <trkpt lat="43.64322" lon="6.23911">
        <ele>626.2</ele>
        <time>2023-02-20T09:16:54Z</time>
      </trkpt>
      <trkpt lat="43.64316" lon="6.23922">
        <ele>626.2</ele>
        <time>2023-02-20T09:17:04Z</time>
      </trkpt>
      <trkpt lat="43.64314" lon="6.23934">
        <ele>627.3</ele>
        <time>2023-02-20T09:17:36Z</time>
      </trkpt>
      <trkpt lat="43.64306" lon="6.23938">
        <ele>627.3</ele>
        <time>2023-02-20T09:17:54Z</time>
      </trkpt>
      <trkpt lat="43.64299" lon="6.23946">
        <ele>627.5</ele>
        <time>2023-02-20T09:18:13Z</time>
      </trkpt>
      <trkpt lat="43.6429" lon="6.2395">
        <ele>627.9</ele>
        <time>2023-02-20T09:18:29Z</time>
      </trkpt>
      <trkpt lat="43.64281" lon="6.23956">
        <ele>628</ele>
        <time>2023-02-20T09:18:43Z</time>
      </trkpt>
      <trkpt lat="43.64272" lon="6.23962">
        <ele>628.4</ele>
        <time>2023-02-20T09:18:55Z</time>
      </trkpt>
      <trkpt lat="43.64264" lon="6.23968">
        <ele>628.7</ele>
        <time>2023-02-20T09:19:04Z</time>
      </trkpt>
      <trkpt lat="43.64256" lon="6.23973">
        <ele>629.7</ele>
        <time>2023-02-20T09:19:14Z</time>
      </trkpt>
      <trkpt lat="43.64248" lon="6.2398">
        <ele>629.8</ele>
        <time>2023-02-20T09:19:24Z</time>
      </trkpt>
      <trkpt lat="43.6424" lon="6.23988">
        <ele>630.5</ele>
        <time>2023-02-20T09:19:34Z</time>
      </trkpt>
      <trkpt lat="43.64232" lon="6.23996">
        <ele>630.2</ele>
        <time>2023-02-20T09:19:44Z</time>
      </trkpt>
      <trkpt lat="43.64225" lon="6.24005">
        <ele>631.1</ele>
        <time>2023-02-20T09:19:55Z</time>
      </trkpt>
      <trkpt lat="43.64218" lon="6.24013">
        <ele>631.3</ele>
        <time>2023-02-20T09:20:04Z</time>
      </trkpt>
      <trkpt lat="43.64209" lon="6.24019">
        <ele>631.5</ele>
        <time>2023-02-20T09:20:13Z</time>
      </trkpt>
      <trkpt lat="43.64203" lon="6.24029">
        <ele>632.2</ele>
        <time>2023-02-20T09:20:23Z</time>
      </trkpt>
      <trkpt lat="43.64197" lon="6.24039">
        <ele>632.7</ele>
        <time>2023-02-20T09:20:36Z</time>
      </trkpt>
      <trkpt lat="43.64189" lon="6.24045">
        <ele>632.8</ele>
        <time>2023-02-20T09:20:47Z</time>
      </trkpt>
      <trkpt lat="43.64182" lon="6.24055">
        <ele>633.2</ele>
        <time>2023-02-20T09:20:57Z</time>
      </trkpt>
      <trkpt lat="43.64177" lon="6.24066">
        <ele>633.6</ele>
        <time>2023-02-20T09:21:09Z</time>
      </trkpt>
      <trkpt lat="43.64173" lon="6.24078">
        <ele>634.2</ele>
        <time>2023-02-20T09:21:20Z</time>
      </trkpt>
      <trkpt lat="43.64169" lon="6.24089">
        <ele>634.6</ele>
        <time>2023-02-20T09:21:30Z</time>
      </trkpt>
      <trkpt lat="43.64164" lon="6.24101">
        <ele>635.2</ele>
        <time>2023-02-20T09:21:41Z</time>
      </trkpt>
      <trkpt lat="43.64161" lon="6.24114">
        <ele>635.7</ele>
        <time>2023-02-20T09:21:51Z</time>
      </trkpt>
      <trkpt lat="43.64159" lon="6.24126">
        <ele>636</ele>
        <time>2023-02-20T09:22:01Z</time>
      </trkpt>
      <trkpt lat="43.6416" lon="6.24139">
        <ele>636.3</ele>
        <time>2023-02-20T09:22:11Z</time>
      </trkpt>
      <trkpt lat="43.64162" lon="6.24151">
        <ele>637</ele>
        <time>2023-02-20T09:22:22Z</time>
      </trkpt>
      <trkpt lat="43.64164" lon="6.24163">
        <ele>637.7</ele>
        <time>2023-02-20T09:22:33Z</time>
      </trkpt>
      <trkpt lat="43.64169" lon="6.24174">
        <ele>638</ele>
        <time>2023-02-20T09:22:49Z</time>
      </trkpt>
      <trkpt lat="43.64175" lon="6.24186">
        <ele>638.3</ele>
        <time>2023-02-20T09:23:03Z</time>
      </trkpt>
      <trkpt lat="43.6418" lon="6.24196">
        <ele>637.5</ele>
        <time>2023-02-20T09:23:13Z</time>
      </trkpt>
      <trkpt lat="43.64184" lon="6.24208">
        <ele>638.1</ele>
        <time>2023-02-20T09:23:24Z</time>
      </trkpt>
      <trkpt lat="43.64187" lon="6.2422">
        <ele>637.7</ele>
        <time>2023-02-20T09:23:35Z</time>
      </trkpt>
      <trkpt lat="43.64183" lon="6.24232">
        <ele>640.6</ele>
        <time>2023-02-20T09:24:13Z</time>
      </trkpt>
      <trkpt lat="43.64177" lon="6.24241">
        <ele>638.9</ele>
        <time>2023-02-20T09:32:19Z</time>
      </trkpt>
      <trkpt lat="43.64169" lon="6.24249">
        <ele>638.9</ele>
        <time>2023-02-20T09:32:30Z</time>
      </trkpt>
      <trkpt lat="43.64162" lon="6.24258">
        <ele>639.5</ele>
        <time>2023-02-20T09:32:40Z</time>
      </trkpt>
      <trkpt lat="43.64161" lon="6.24272">
        <ele>639.8</ele>
        <time>2023-02-20T09:32:50Z</time>
      </trkpt>
      <trkpt lat="43.6416" lon="6.24284">
        <ele>640</ele>
        <time>2023-02-20T09:32:59Z</time>
      </trkpt>
      <trkpt lat="43.6416" lon="6.24298">
        <ele>640.6</ele>
        <time>2023-02-20T09:33:08Z</time>
      </trkpt>
      <trkpt lat="43.64163" lon="6.24311">
        <ele>641.1</ele>
        <time>2023-02-20T09:33:18Z</time>
      </trkpt>
      <trkpt lat="43.6417" lon="6.2432">
        <ele>641.7</ele>
        <time>2023-02-20T09:33:33Z</time>
      </trkpt>
      <trkpt lat="43.64179" lon="6.24318">
        <ele>642.5</ele>
        <time>2023-02-20T09:33:45Z</time>
      </trkpt>
      <trkpt lat="43.64186" lon="6.24309">
        <ele>642.5</ele>
        <time>2023-02-20T09:33:55Z</time>
      </trkpt>
      <trkpt lat="43.64194" lon="6.24299">
        <ele>643.8</ele>
        <time>2023-02-20T09:34:05Z</time>
      </trkpt>
      <trkpt lat="43.64202" lon="6.24294">
        <ele>644.8</ele>
        <time>2023-02-20T09:34:19Z</time>
      </trkpt>
      <trkpt lat="43.64211" lon="6.24289">
        <ele>645</ele>
        <time>2023-02-20T09:34:30Z</time>
      </trkpt>
      <trkpt lat="43.6422" lon="6.24291">
        <ele>645.3</ele>
        <time>2023-02-20T09:34:39Z</time>
      </trkpt>
      <trkpt lat="43.64228" lon="6.24298">
        <ele>645.6</ele>
        <time>2023-02-20T09:34:48Z</time>
      </trkpt>
      <trkpt lat="43.64235" lon="6.24307">
        <ele>646.3</ele>
        <time>2023-02-20T09:34:57Z</time>
      </trkpt>
      <trkpt lat="43.64239" lon="6.24318">
        <ele>646.6</ele>
        <time>2023-02-20T09:35:07Z</time>
      </trkpt>
      <trkpt lat="43.64242" lon="6.24331">
        <ele>646.9</ele>
        <time>2023-02-20T09:35:15Z</time>
      </trkpt>
      <trkpt lat="43.64241" lon="6.24345">
        <ele>647.5</ele>
        <time>2023-02-20T09:35:24Z</time>
      </trkpt>
      <trkpt lat="43.6424" lon="6.24357">
        <ele>648.1</ele>
        <time>2023-02-20T09:35:34Z</time>
      </trkpt>
      <trkpt lat="43.64237" lon="6.24369">
        <ele>648.3</ele>
        <time>2023-02-20T09:35:43Z</time>
      </trkpt>
      <trkpt lat="43.64232" lon="6.24382">
        <ele>649.2</ele>
        <time>2023-02-20T09:35:52Z</time>
      </trkpt>
      <trkpt lat="43.64228" lon="6.24394">
        <ele>649.4</ele>
        <time>2023-02-20T09:36:01Z</time>
      </trkpt>
      <trkpt lat="43.64224" lon="6.24406">
        <ele>650.2</ele>
        <time>2023-02-20T09:36:11Z</time>
      </trkpt>
      <trkpt lat="43.64221" lon="6.24419">
        <ele>650.7</ele>
        <time>2023-02-20T09:36:21Z</time>
      </trkpt>
      <trkpt lat="43.64216" lon="6.24431">
        <ele>650.8</ele>
        <time>2023-02-20T09:36:30Z</time>
      </trkpt>
      <trkpt lat="43.64213" lon="6.24442">
        <ele>651.8</ele>
        <time>2023-02-20T09:36:39Z</time>
      </trkpt>
      <trkpt lat="43.6421" lon="6.24455">
        <ele>652</ele>
        <time>2023-02-20T09:36:49Z</time>
      </trkpt>
      <trkpt lat="43.64209" lon="6.24467">
        <ele>652.2</ele>
        <time>2023-02-20T09:36:59Z</time>
      </trkpt>
      <trkpt lat="43.64208" lon="6.24481">
        <ele>652.7</ele>
        <time>2023-02-20T09:37:09Z</time>
      </trkpt>
      <trkpt lat="43.64206" lon="6.24493">
        <ele>653.1</ele>
        <time>2023-02-20T09:37:18Z</time>
      </trkpt>
      <trkpt lat="43.64204" lon="6.24507">
        <ele>652.9</ele>
        <time>2023-02-20T09:37:28Z</time>
      </trkpt>
      <trkpt lat="43.64199" lon="6.24518">
        <ele>654.2</ele>
        <time>2023-02-20T09:37:37Z</time>
      </trkpt>
      <trkpt lat="43.64192" lon="6.24526">
        <ele>654.4</ele>
        <time>2023-02-20T09:37:46Z</time>
      </trkpt>
      <trkpt lat="43.64183" lon="6.24531">
        <ele>654.7</ele>
        <time>2023-02-20T09:37:55Z</time>
      </trkpt>
      <trkpt lat="43.64173" lon="6.24532">
        <ele>654.8</ele>
        <time>2023-02-20T09:38:04Z</time>
      </trkpt>
      <trkpt lat="43.64163" lon="6.24531">
        <ele>655.1</ele>
        <time>2023-02-20T09:38:13Z</time>
      </trkpt>
      <trkpt lat="43.64153" lon="6.24533">
        <ele>653.3</ele>
        <time>2023-02-20T09:38:23Z</time>
      </trkpt>
      <trkpt lat="43.64146" lon="6.24542">
        <ele>657.2</ele>
        <time>2023-02-20T09:38:35Z</time>
      </trkpt>
      <trkpt lat="43.64143" lon="6.24555">
        <ele>657.4</ele>
        <time>2023-02-20T09:38:46Z</time>
      </trkpt>
      <trkpt lat="43.64144" lon="6.24567">
        <ele>657.5</ele>
        <time>2023-02-20T09:38:56Z</time>
      </trkpt>
      <trkpt lat="43.64145" lon="6.24581">
        <ele>657.6</ele>
        <time>2023-02-20T09:39:06Z</time>
      </trkpt>
      <trkpt lat="43.64143" lon="6.24593">
        <ele>657.9</ele>
        <time>2023-02-20T09:39:15Z</time>
      </trkpt>
      <trkpt lat="43.64139" lon="6.24605">
        <ele>658.2</ele>
        <time>2023-02-20T09:39:25Z</time>
      </trkpt>
      <trkpt lat="43.64134" lon="6.24616">
        <ele>658.4</ele>
        <time>2023-02-20T09:39:34Z</time>
      </trkpt>
      <trkpt lat="43.64128" lon="6.24627">
        <ele>658.8</ele>
        <time>2023-02-20T09:39:44Z</time>
      </trkpt>
      <trkpt lat="43.64123" lon="6.24639">
        <ele>659</ele>
        <time>2023-02-20T09:39:54Z</time>
      </trkpt>
      <trkpt lat="43.64119" lon="6.2465">
        <ele>659.2</ele>
        <time>2023-02-20T09:40:04Z</time>
      </trkpt>
      <trkpt lat="43.64113" lon="6.24662">
        <ele>660.2</ele>
        <time>2023-02-20T09:40:14Z</time>
      </trkpt>
      <trkpt lat="43.64107" lon="6.24672">
        <ele>660.5</ele>
        <time>2023-02-20T09:40:24Z</time>
      </trkpt>
      <trkpt lat="43.64102" lon="6.24683">
        <ele>660.7</ele>
        <time>2023-02-20T09:40:34Z</time>
      </trkpt>
      <trkpt lat="43.64096" lon="6.24692">
        <ele>660.9</ele>
        <time>2023-02-20T09:40:44Z</time>
      </trkpt>
      <trkpt lat="43.64089" lon="6.247">
        <ele>661.3</ele>
        <time>2023-02-20T09:40:53Z</time>
      </trkpt>
      <trkpt lat="43.64082" lon="6.24709">
        <ele>661.1</ele>
        <time>2023-02-20T09:41:04Z</time>
      </trkpt>
      <trkpt lat="43.64076" lon="6.24719">
        <ele>662.5</ele>
        <time>2023-02-20T09:41:14Z</time>
      </trkpt>
      <trkpt lat="43.6407" lon="6.24728">
        <ele>662.8</ele>
        <time>2023-02-20T09:41:23Z</time>
      </trkpt>
      <trkpt lat="43.64064" lon="6.24739">
        <ele>663.1</ele>
        <time>2023-02-20T09:41:32Z</time>
      </trkpt>
      <trkpt lat="43.6406" lon="6.2475">
        <ele>663.3</ele>
        <time>2023-02-20T09:41:41Z</time>
      </trkpt>
      <trkpt lat="43.64057" lon="6.24764">
        <ele>663.9</ele>
        <time>2023-02-20T09:41:51Z</time>
      </trkpt>
      <trkpt lat="43.64053" lon="6.24776">
        <ele>664.3</ele>
        <time>2023-02-20T09:42:01Z</time>
      </trkpt>
      <trkpt lat="43.6405" lon="6.24789">
        <ele>664</ele>
        <time>2023-02-20T09:42:11Z</time>
      </trkpt>
      <trkpt lat="43.64048" lon="6.24802">
        <ele>665</ele>
        <time>2023-02-20T09:42:20Z</time>
      </trkpt>
      <trkpt lat="43.64046" lon="6.24815">
        <ele>664.8</ele>
        <time>2023-02-20T09:42:30Z</time>
      </trkpt>
      <trkpt lat="43.64043" lon="6.24827">
        <ele>664.7</ele>
        <time>2023-02-20T09:42:40Z</time>
      </trkpt>
      <trkpt lat="43.64041" lon="6.24839">
        <ele>665.2</ele>
        <time>2023-02-20T09:42:49Z</time>
      </trkpt>
      <trkpt lat="43.64038" lon="6.24851">
        <ele>665.6</ele>
        <time>2023-02-20T09:42:58Z</time>
      </trkpt>
      <trkpt lat="43.64035" lon="6.24863">
        <ele>666</ele>
        <time>2023-02-20T09:43:08Z</time>
      </trkpt>
      <trkpt lat="43.6403" lon="6.24875">
        <ele>666.6</ele>
        <time>2023-02-20T09:43:18Z</time>
      </trkpt>
      <trkpt lat="43.64026" lon="6.24886">
        <ele>665.9</ele>
        <time>2023-02-20T09:43:28Z</time>
      </trkpt>
      <trkpt lat="43.64021" lon="6.24895">
        <ele>667.1</ele>
        <time>2023-02-20T09:43:37Z</time>
      </trkpt>
      <trkpt lat="43.64013" lon="6.24904">
        <ele>667.6</ele>
        <time>2023-02-20T09:43:48Z</time>
      </trkpt>
      <trkpt lat="43.64004" lon="6.24909">
        <ele>667.5</ele>
        <time>2023-02-20T09:43:59Z</time>
      </trkpt>
      <trkpt lat="43.63995" lon="6.24911">
        <ele>667.7</ele>
        <time>2023-02-20T09:44:08Z</time>
      </trkpt>
      <trkpt lat="43.63986" lon="6.24914">
        <ele>668.4</ele>
        <time>2023-02-20T09:44:18Z</time>
      </trkpt>
      <trkpt lat="43.63976" lon="6.24916">
        <ele>669.2</ele>
        <time>2023-02-20T09:44:44Z</time>
      </trkpt>
      <trkpt lat="43.63968" lon="6.24921">
        <ele>669.5</ele>
        <time>2023-02-20T09:44:54Z</time>
      </trkpt>
      <trkpt lat="43.63959" lon="6.24921">
        <ele>670</ele>
        <time>2023-02-20T09:45:28Z</time>
      </trkpt>
      <trkpt lat="43.6395" lon="6.24924">
        <ele>670.3</ele>
        <time>2023-02-20T09:45:51Z</time>
      </trkpt>
      <trkpt lat="43.63942" lon="6.24932">
        <ele>670.6</ele>
        <time>2023-02-20T09:46:20Z</time>
      </trkpt>
      <trkpt lat="43.63939" lon="6.24944">
        <ele>671.1</ele>
        <time>2023-02-20T09:47:11Z</time>
      </trkpt>
      <trkpt lat="43.63938" lon="6.24957">
        <ele>670.4</ele>
        <time>2023-02-20T09:48:43Z</time>
      </trkpt>
      <trkpt lat="43.63942" lon="6.24969">
        <ele>674.3</ele>
        <time>2023-02-20T09:48:52Z</time>
      </trkpt>
      <trkpt lat="43.63943" lon="6.24981">
        <ele>673.9</ele>
        <time>2023-02-20T09:49:02Z</time>
      </trkpt>
      <trkpt lat="43.63944" lon="6.24995">
        <ele>673.3</ele>
        <time>2023-02-20T09:49:13Z</time>
      </trkpt>
      <trkpt lat="43.63943" lon="6.25007">
        <ele>672.9</ele>
        <time>2023-02-20T09:49:23Z</time>
      </trkpt>
      <trkpt lat="43.63944" lon="6.2502">
        <ele>673.6</ele>
        <time>2023-02-20T09:49:33Z</time>
      </trkpt>
      <trkpt lat="43.63945" lon="6.25033">
        <ele>674</ele>
        <time>2023-02-20T09:49:43Z</time>
      </trkpt>
      <trkpt lat="43.63943" lon="6.25045">
        <ele>674.4</ele>
        <time>2023-02-20T09:49:56Z</time>
      </trkpt>
      <trkpt lat="43.63943" lon="6.25058">
        <ele>674.5</ele>
        <time>2023-02-20T09:50:07Z</time>
      </trkpt>
      <trkpt lat="43.63938" lon="6.2507">
        <ele>674.4</ele>
        <time>2023-02-20T09:50:18Z</time>
      </trkpt>
      <trkpt lat="43.63932" lon="6.25079">
        <ele>674.3</ele>
        <time>2023-02-20T09:50:27Z</time>
      </trkpt>
      <trkpt lat="43.63925" lon="6.25088">
        <ele>676.1</ele>
        <time>2023-02-20T09:50:36Z</time>
      </trkpt>
      <trkpt lat="43.63919" lon="6.25098">
        <ele>676.7</ele>
        <time>2023-02-20T09:50:45Z</time>
      </trkpt>
      <trkpt lat="43.63912" lon="6.25107">
        <ele>676.8</ele>
        <time>2023-02-20T09:50:54Z</time>
      </trkpt>
      <trkpt lat="43.63904" lon="6.25112">
        <ele>676.5</ele>
        <time>2023-02-20T09:51:02Z</time>
      </trkpt>
      <trkpt lat="43.63897" lon="6.25121">
        <ele>677.6</ele>
        <time>2023-02-20T09:51:12Z</time>
      </trkpt>
      <trkpt lat="43.63892" lon="6.25132">
        <ele>677.8</ele>
        <time>2023-02-20T09:51:22Z</time>
      </trkpt>
      <trkpt lat="43.63889" lon="6.25143">
        <ele>677.9</ele>
        <time>2023-02-20T09:51:31Z</time>
      </trkpt>
      <trkpt lat="43.63886" lon="6.25156">
        <ele>678.4</ele>
        <time>2023-02-20T09:51:42Z</time>
      </trkpt>
      <trkpt lat="43.63883" lon="6.25168">
        <ele>678.6</ele>
        <time>2023-02-20T09:51:53Z</time>
      </trkpt>
      <trkpt lat="43.63879" lon="6.2518">
        <ele>678.4</ele>
        <time>2023-02-20T09:52:03Z</time>
      </trkpt>
      <trkpt lat="43.63874" lon="6.2519">
        <ele>679.3</ele>
        <time>2023-02-20T09:52:13Z</time>
      </trkpt>
      <trkpt lat="43.63869" lon="6.252">
        <ele>679.9</ele>
        <time>2023-02-20T09:52:29Z</time>
      </trkpt>
      <trkpt lat="43.63862" lon="6.25209">
        <ele>679.8</ele>
        <time>2023-02-20T09:55:11Z</time>
      </trkpt>
      <trkpt lat="43.63853" lon="6.25212">
        <ele>679.3</ele>
        <time>2023-02-20T09:58:08Z</time>
      </trkpt>
      <trkpt lat="43.63844" lon="6.25216">
        <ele>680.5</ele>
        <time>2023-02-20T09:59:09Z</time>
      </trkpt>
      <trkpt lat="43.63836" lon="6.2522">
        <ele>680.5</ele>
        <time>2023-02-20T09:59:19Z</time>
      </trkpt>
      <trkpt lat="43.63828" lon="6.25226">
        <ele>677.7</ele>
        <time>2023-02-20T09:59:29Z</time>
      </trkpt>
      <trkpt lat="43.6382" lon="6.25233">
        <ele>678.7</ele>
        <time>2023-02-20T09:59:39Z</time>
      </trkpt>
      <trkpt lat="43.63812" lon="6.2524">
        <ele>680.8</ele>
        <time>2023-02-20T09:59:49Z</time>
      </trkpt>
      <trkpt lat="43.63803" lon="6.25247">
        <ele>681.4</ele>
        <time>2023-02-20T09:59:59Z</time>
      </trkpt>
      <trkpt lat="43.63796" lon="6.25255">
        <ele>682.4</ele>
        <time>2023-02-20T10:00:08Z</time>
      </trkpt>
      <trkpt lat="43.63789" lon="6.25264">
        <ele>682.4</ele>
        <time>2023-02-20T10:00:17Z</time>
      </trkpt>
      <trkpt lat="43.63783" lon="6.25274">
        <ele>682.1</ele>
        <time>2023-02-20T10:00:27Z</time>
      </trkpt>
      <trkpt lat="43.63778" lon="6.25284">
        <ele>683.1</ele>
        <time>2023-02-20T10:00:36Z</time>
      </trkpt>
      <trkpt lat="43.63771" lon="6.25295">
        <ele>683.1</ele>
        <time>2023-02-20T10:00:47Z</time>
      </trkpt>
      <trkpt lat="43.63767" lon="6.25306">
        <ele>682.7</ele>
        <time>2023-02-20T10:00:58Z</time>
      </trkpt>
      <trkpt lat="43.63764" lon="6.25319">
        <ele>683.8</ele>
        <time>2023-02-20T10:01:09Z</time>
      </trkpt>
      <trkpt lat="43.6376" lon="6.2533">
        <ele>685</ele>
        <time>2023-02-20T10:01:19Z</time>
      </trkpt>
      <trkpt lat="43.63756" lon="6.25342">
        <ele>686.2</ele>
        <time>2023-02-20T10:01:30Z</time>
      </trkpt>
      <trkpt lat="43.63752" lon="6.25354">
        <ele>684.7</ele>
        <time>2023-02-20T10:01:40Z</time>
      </trkpt>
      <trkpt lat="43.63749" lon="6.25366">
        <ele>686.1</ele>
        <time>2023-02-20T10:01:51Z</time>
      </trkpt>
      <trkpt lat="43.63746" lon="6.25378">
        <ele>685.7</ele>
        <time>2023-02-20T10:02:00Z</time>
      </trkpt>
      <trkpt lat="43.63746" lon="6.25391">
        <ele>686.4</ele>
        <time>2023-02-20T10:02:11Z</time>
      </trkpt>
      <trkpt lat="43.63745" lon="6.25404">
        <ele>688.3</ele>
        <time>2023-02-20T10:02:22Z</time>
      </trkpt>
      <trkpt lat="43.63742" lon="6.25417">
        <ele>687.6</ele>
        <time>2023-02-20T10:02:33Z</time>
      </trkpt>
      <trkpt lat="43.63741" lon="6.2543">
        <ele>687.3</ele>
        <time>2023-02-20T10:02:46Z</time>
      </trkpt>
      <trkpt lat="43.63733" lon="6.25435">
        <ele>689.9</ele>
        <time>2023-02-20T10:04:50Z</time>
      </trkpt>
      <trkpt lat="43.63726" lon="6.25442">
        <ele>689.7</ele>
        <time>2023-02-20T10:05:01Z</time>
      </trkpt>
      <trkpt lat="43.63718" lon="6.25451">
        <ele>689.6</ele>
        <time>2023-02-20T10:05:13Z</time>
      </trkpt>
      <trkpt lat="43.63711" lon="6.25459">
        <ele>687.4</ele>
        <time>2023-02-20T10:05:24Z</time>
      </trkpt>
      <trkpt lat="43.63703" lon="6.25466">
        <ele>689.6</ele>
        <time>2023-02-20T10:05:35Z</time>
      </trkpt>
      <trkpt lat="43.63694" lon="6.2547">
        <ele>691.6</ele>
        <time>2023-02-20T10:05:49Z</time>
      </trkpt>
      <trkpt lat="43.63685" lon="6.25475">
        <ele>692.3</ele>
        <time>2023-02-20T10:05:59Z</time>
      </trkpt>
      <trkpt lat="43.63678" lon="6.25485">
        <ele>692.9</ele>
        <time>2023-02-20T10:06:09Z</time>
      </trkpt>
      <trkpt lat="43.63673" lon="6.25495">
        <ele>693.1</ele>
        <time>2023-02-20T10:06:17Z</time>
      </trkpt>
      <trkpt lat="43.63668" lon="6.25506">
        <ele>693.3</ele>
        <time>2023-02-20T10:06:27Z</time>
      </trkpt>
      <trkpt lat="43.63663" lon="6.25517">
        <ele>693.5</ele>
        <time>2023-02-20T10:06:38Z</time>
      </trkpt>
      <trkpt lat="43.63658" lon="6.25528">
        <ele>694.7</ele>
        <time>2023-02-20T10:06:49Z</time>
      </trkpt>
      <trkpt lat="43.63654" lon="6.25539">
        <ele>695.1</ele>
        <time>2023-02-20T10:07:00Z</time>
      </trkpt>
      <trkpt lat="43.63653" lon="6.25552">
        <ele>695.3</ele>
        <time>2023-02-20T10:07:13Z</time>
      </trkpt>
      <trkpt lat="43.63652" lon="6.25565">
        <ele>696.1</ele>
        <time>2023-02-20T10:07:25Z</time>
      </trkpt>
      <trkpt lat="43.63648" lon="6.25576">
        <ele>696.3</ele>
        <time>2023-02-20T10:07:34Z</time>
      </trkpt>
      <trkpt lat="43.63646" lon="6.25588">
        <ele>697.4</ele>
        <time>2023-02-20T10:07:43Z</time>
      </trkpt>
      <trkpt lat="43.63642" lon="6.256">
        <ele>699.4</ele>
        <time>2023-02-20T10:07:51Z</time>
      </trkpt>
      <trkpt lat="43.63636" lon="6.2561">
        <ele>699</ele>
        <time>2023-02-20T10:08:02Z</time>
      </trkpt>
      <trkpt lat="43.63631" lon="6.2562">
        <ele>696.8</ele>
        <time>2023-02-20T10:08:12Z</time>
      </trkpt>
      <trkpt lat="43.63624" lon="6.25629">
        <ele>698.2</ele>
        <time>2023-02-20T10:08:25Z</time>
      </trkpt>
      <trkpt lat="43.63618" lon="6.25639">
        <ele>700.9</ele>
        <time>2023-02-20T10:08:33Z</time>
      </trkpt>
      <trkpt lat="43.63612" lon="6.25649">
        <ele>700.5</ele>
        <time>2023-02-20T10:08:43Z</time>
      </trkpt>
      <trkpt lat="43.63608" lon="6.2566">
        <ele>700.9</ele>
        <time>2023-02-20T10:08:54Z</time>
      </trkpt>
      <trkpt lat="43.63603" lon="6.25671">
        <ele>701.6</ele>
        <time>2023-02-20T10:09:05Z</time>
      </trkpt>
      <trkpt lat="43.63598" lon="6.25683">
        <ele>702.5</ele>
        <time>2023-02-20T10:09:16Z</time>
      </trkpt>
      <trkpt lat="43.63593" lon="6.25694">
        <ele>703</ele>
        <time>2023-02-20T10:09:28Z</time>
      </trkpt>
      <trkpt lat="43.63588" lon="6.25704">
        <ele>701.4</ele>
        <time>2023-02-20T10:09:37Z</time>
      </trkpt>
      <trkpt lat="43.63581" lon="6.25714">
        <ele>704.5</ele>
        <time>2023-02-20T10:09:46Z</time>
      </trkpt>
      <trkpt lat="43.63575" lon="6.25723">
        <ele>706.6</ele>
        <time>2023-02-20T10:09:57Z</time>
      </trkpt>
      <trkpt lat="43.63568" lon="6.25732">
        <ele>705.4</ele>
        <time>2023-02-20T10:10:10Z</time>
      </trkpt>
      <trkpt lat="43.63565" lon="6.25744">
        <ele>704.7</ele>
        <time>2023-02-20T10:10:22Z</time>
      </trkpt>
      <trkpt lat="43.63557" lon="6.25752">
        <ele>705.6</ele>
        <time>2023-02-20T10:10:39Z</time>
      </trkpt>
      <trkpt lat="43.6355" lon="6.25759">
        <ele>706</ele>
        <time>2023-02-20T10:10:49Z</time>
      </trkpt>
      <trkpt lat="43.63542" lon="6.25766">
        <ele>701.5</ele>
        <time>2023-02-20T10:10:59Z</time>
      </trkpt>
      <trkpt lat="43.63532" lon="6.2577">
        <ele>706</ele>
        <time>2023-02-20T10:11:09Z</time>
      </trkpt>
      <trkpt lat="43.63524" lon="6.25776">
        <ele>707.9</ele>
        <time>2023-02-20T10:11:19Z</time>
      </trkpt>
      <trkpt lat="43.63515" lon="6.25782">
        <ele>709.3</ele>
        <time>2023-02-20T10:11:31Z</time>
      </trkpt>
      <trkpt lat="43.63509" lon="6.2579">
        <ele>709.7</ele>
        <time>2023-02-20T10:11:41Z</time>
      </trkpt>
      <trkpt lat="43.63502" lon="6.25799">
        <ele>709.9</ele>
        <time>2023-02-20T10:11:51Z</time>
      </trkpt>
      <trkpt lat="43.63494" lon="6.25807">
        <ele>710.4</ele>
        <time>2023-02-20T10:12:00Z</time>
      </trkpt>
      <trkpt lat="43.63488" lon="6.25816">
        <ele>710.6</ele>
        <time>2023-02-20T10:12:10Z</time>
      </trkpt>
      <trkpt lat="43.63479" lon="6.25819">
        <ele>711.5</ele>
        <time>2023-02-20T10:12:20Z</time>
      </trkpt>
      <trkpt lat="43.6347" lon="6.25825">
        <ele>712.1</ele>
        <time>2023-02-20T10:12:29Z</time>
      </trkpt>
      <trkpt lat="43.63461" lon="6.25824">
        <ele>712.4</ele>
        <time>2023-02-20T10:12:39Z</time>
      </trkpt>
      <trkpt lat="43.63452" lon="6.25825">
        <ele>709.3</ele>
        <time>2023-02-20T10:12:48Z</time>
      </trkpt>
      <trkpt lat="43.63443" lon="6.25827">
        <ele>714.4</ele>
        <time>2023-02-20T10:12:59Z</time>
      </trkpt>
      <trkpt lat="43.63433" lon="6.25831">
        <ele>712.9</ele>
        <time>2023-02-20T10:13:10Z</time>
      </trkpt>
      <trkpt lat="43.63426" lon="6.25838">
        <ele>714.6</ele>
        <time>2023-02-20T10:13:23Z</time>
      </trkpt>
      <trkpt lat="43.63419" lon="6.25848">
        <ele>717</ele>
        <time>2023-02-20T10:13:35Z</time>
      </trkpt>
      <trkpt lat="43.63411" lon="6.25855">
        <ele>716.1</ele>
        <time>2023-02-20T10:13:45Z</time>
      </trkpt>
      <trkpt lat="43.63403" lon="6.25861">
        <ele>715.6</ele>
        <time>2023-02-20T10:13:56Z</time>
      </trkpt>
      <trkpt lat="43.63396" lon="6.2587">
        <ele>715.7</ele>
        <time>2023-02-20T10:14:09Z</time>
      </trkpt>
      <trkpt lat="43.63388" lon="6.25879">
        <ele>716</ele>
        <time>2023-02-20T10:14:21Z</time>
      </trkpt>
      <trkpt lat="43.63382" lon="6.25888">
        <ele>713.9</ele>
        <time>2023-02-20T10:14:32Z</time>
      </trkpt>
      <trkpt lat="43.63377" lon="6.25899">
        <ele>718.6</ele>
        <time>2023-02-20T10:14:45Z</time>
      </trkpt>
      <trkpt lat="43.63373" lon="6.25911">
        <ele>716.2</ele>
        <time>2023-02-20T10:14:57Z</time>
      </trkpt>
      <trkpt lat="43.6337" lon="6.25923">
        <ele>717.8</ele>
        <time>2023-02-20T10:15:08Z</time>
      </trkpt>
      <trkpt lat="43.63363" lon="6.25932">
        <ele>721.5</ele>
        <time>2023-02-20T10:15:19Z</time>
      </trkpt>
      <trkpt lat="43.63356" lon="6.25941">
        <ele>720.6</ele>
        <time>2023-02-20T10:15:30Z</time>
      </trkpt>
      <trkpt lat="43.63348" lon="6.25946">
        <ele>722</ele>
        <time>2023-02-20T10:15:41Z</time>
      </trkpt>
      <trkpt lat="43.63338" lon="6.25946">
        <ele>722.1</ele>
        <time>2023-02-20T10:15:53Z</time>
      </trkpt>
      <trkpt lat="43.63328" lon="6.25945">
        <ele>721.9</ele>
        <time>2023-02-20T10:16:02Z</time>
      </trkpt>
      <trkpt lat="43.63319" lon="6.25949">
        <ele>721.1</ele>
        <time>2023-02-20T10:16:12Z</time>
      </trkpt>
      <trkpt lat="43.63311" lon="6.25953">
        <ele>722.1</ele>
        <time>2023-02-20T10:16:23Z</time>
      </trkpt>
      <trkpt lat="43.63302" lon="6.25959">
        <ele>723.2</ele>
        <time>2023-02-20T10:16:33Z</time>
      </trkpt>
      <trkpt lat="43.63294" lon="6.25965">
        <ele>723.3</ele>
        <time>2023-02-20T10:16:46Z</time>
      </trkpt>
      <trkpt lat="43.63288" lon="6.25975">
        <ele>723.6</ele>
        <time>2023-02-20T10:16:58Z</time>
      </trkpt>
      <trkpt lat="43.63284" lon="6.25986">
        <ele>724</ele>
        <time>2023-02-20T10:17:09Z</time>
      </trkpt>
      <trkpt lat="43.6328" lon="6.25997">
        <ele>723.9</ele>
        <time>2023-02-20T10:17:19Z</time>
      </trkpt>
      <trkpt lat="43.63276" lon="6.2601">
        <ele>724.5</ele>
        <time>2023-02-20T10:17:28Z</time>
      </trkpt>
      <trkpt lat="43.63271" lon="6.26021">
        <ele>724.8</ele>
        <time>2023-02-20T10:17:38Z</time>
      </trkpt>
      <trkpt lat="43.63265" lon="6.2603">
        <ele>726.4</ele>
        <time>2023-02-20T10:17:49Z</time>
      </trkpt>
      <trkpt lat="43.63258" lon="6.26038">
        <ele>726.2</ele>
        <time>2023-02-20T10:17:59Z</time>
      </trkpt>
      <trkpt lat="43.6325" lon="6.26044">
        <ele>726.8</ele>
        <time>2023-02-20T10:18:13Z</time>
      </trkpt>
      <trkpt lat="43.6324" lon="6.26044">
        <ele>727.1</ele>
        <time>2023-02-20T10:18:42Z</time>
      </trkpt>
      <trkpt lat="43.63231" lon="6.26048">
        <ele>727.4</ele>
        <time>2023-02-20T10:19:01Z</time>
      </trkpt>
      <trkpt lat="43.63222" lon="6.26047">
        <ele>728.3</ele>
        <time>2023-02-20T10:19:14Z</time>
      </trkpt>
      <trkpt lat="43.63213" lon="6.26051">
        <ele>728.6</ele>
        <time>2023-02-20T10:19:25Z</time>
      </trkpt>
      <trkpt lat="43.63206" lon="6.26061">
        <ele>729.1</ele>
        <time>2023-02-20T10:19:35Z</time>
      </trkpt>
      <trkpt lat="43.63201" lon="6.26072">
        <ele>729.4</ele>
        <time>2023-02-20T10:19:47Z</time>
      </trkpt>
      <trkpt lat="43.63198" lon="6.26085">
        <ele>730.2</ele>
        <time>2023-02-20T10:19:59Z</time>
      </trkpt>
      <trkpt lat="43.63194" lon="6.26096">
        <ele>730.4</ele>
        <time>2023-02-20T10:20:09Z</time>
      </trkpt>
      <trkpt lat="43.63187" lon="6.26105">
        <ele>730.6</ele>
        <time>2023-02-20T10:20:32Z</time>
      </trkpt>
      <trkpt lat="43.63183" lon="6.26117">
        <ele>731.1</ele>
        <time>2023-02-20T10:20:44Z</time>
      </trkpt>
      <trkpt lat="43.63178" lon="6.26128">
        <ele>731.5</ele>
        <time>2023-02-20T10:20:54Z</time>
      </trkpt>
      <trkpt lat="43.63173" lon="6.26138">
        <ele>731.7</ele>
        <time>2023-02-20T10:21:03Z</time>
      </trkpt>
      <trkpt lat="43.63165" lon="6.26147">
        <ele>732.5</ele>
        <time>2023-02-20T10:21:14Z</time>
      </trkpt>
      <trkpt lat="43.63159" lon="6.26156">
        <ele>733</ele>
        <time>2023-02-20T10:21:23Z</time>
      </trkpt>
      <trkpt lat="43.63151" lon="6.26163">
        <ele>733.2</ele>
        <time>2023-02-20T10:21:32Z</time>
      </trkpt>
      <trkpt lat="43.63144" lon="6.26171">
        <ele>733.4</ele>
        <time>2023-02-20T10:21:41Z</time>
      </trkpt>
      <trkpt lat="43.63137" lon="6.2618">
        <ele>733.7</ele>
        <time>2023-02-20T10:21:51Z</time>
      </trkpt>
      <trkpt lat="43.63131" lon="6.26189">
        <ele>733.9</ele>
        <time>2023-02-20T10:22:04Z</time>
      </trkpt>
      <trkpt lat="43.63124" lon="6.26199">
        <ele>733.9</ele>
        <time>2023-02-20T10:22:16Z</time>
      </trkpt>
      <trkpt lat="43.6312" lon="6.2621">
        <ele>734.9</ele>
        <time>2023-02-20T10:22:32Z</time>
      </trkpt>
      <trkpt lat="43.63116" lon="6.26222">
        <ele>735.7</ele>
        <time>2023-02-20T10:22:43Z</time>
      </trkpt>
      <trkpt lat="43.63115" lon="6.26235">
        <ele>736</ele>
        <time>2023-02-20T10:22:55Z</time>
      </trkpt>
      <trkpt lat="43.63112" lon="6.26248">
        <ele>737.5</ele>
        <time>2023-02-20T10:23:06Z</time>
      </trkpt>
      <trkpt lat="43.63107" lon="6.26259">
        <ele>738.3</ele>
        <time>2023-02-20T10:23:15Z</time>
      </trkpt>
      <trkpt lat="43.63102" lon="6.26269">
        <ele>737</ele>
        <time>2023-02-20T10:23:25Z</time>
      </trkpt>
      <trkpt lat="43.63093" lon="6.26274">
        <ele>737.8</ele>
        <time>2023-02-20T10:23:34Z</time>
      </trkpt>
      <trkpt lat="43.63083" lon="6.26276">
        <ele>738.6</ele>
        <time>2023-02-20T10:23:44Z</time>
      </trkpt>
      <trkpt lat="43.63074" lon="6.26276">
        <ele>738.9</ele>
        <time>2023-02-20T10:23:52Z</time>
      </trkpt>
      <trkpt lat="43.63065" lon="6.26277">
        <ele>739.5</ele>
        <time>2023-02-20T10:24:02Z</time>
      </trkpt>
      <trkpt lat="43.63055" lon="6.26279">
        <ele>742.6</ele>
        <time>2023-02-20T10:24:14Z</time>
      </trkpt>
      <trkpt lat="43.63047" lon="6.26285">
        <ele>741.3</ele>
        <time>2023-02-20T10:24:36Z</time>
      </trkpt>
      <trkpt lat="43.63041" lon="6.26295">
        <ele>738.2</ele>
        <time>2023-02-20T10:25:02Z</time>
      </trkpt>
      <trkpt lat="43.63034" lon="6.26304">
        <ele>742.5</ele>
        <time>2023-02-20T10:29:01Z</time>
      </trkpt>
      <trkpt lat="43.63029" lon="6.26314">
        <ele>743.4</ele>
        <time>2023-02-20T10:29:26Z</time>
      </trkpt>
      <trkpt lat="43.63024" lon="6.26325">
        <ele>741.4</ele>
        <time>2023-02-20T10:30:11Z</time>
      </trkpt>
      <trkpt lat="43.63017" lon="6.26334">
        <ele>741.9</ele>
        <time>2023-02-20T10:30:22Z</time>
      </trkpt>
      <trkpt lat="43.6301" lon="6.26342">
        <ele>741.9</ele>
        <time>2023-02-20T10:30:36Z</time>
      </trkpt>
      <trkpt lat="43.63002" lon="6.26349">
        <ele>747.7</ele>
        <time>2023-02-20T10:30:46Z</time>
      </trkpt>
      <trkpt lat="43.62994" lon="6.26354">
        <ele>745.5</ele>
        <time>2023-02-20T10:30:57Z</time>
      </trkpt>
      <trkpt lat="43.62986" lon="6.26361">
        <ele>746.6</ele>
        <time>2023-02-20T10:31:09Z</time>
      </trkpt>
      <trkpt lat="43.62978" lon="6.26366">
        <ele>747.1</ele>
        <time>2023-02-20T10:31:20Z</time>
      </trkpt>
      <trkpt lat="43.62969" lon="6.26369">
        <ele>743.8</ele>
        <time>2023-02-20T10:31:32Z</time>
      </trkpt>
      <trkpt lat="43.6296" lon="6.26373">
        <ele>749.2</ele>
        <time>2023-02-20T10:31:42Z</time>
      </trkpt>
      <trkpt lat="43.62951" lon="6.26377">
        <ele>747.4</ele>
        <time>2023-02-20T10:31:54Z</time>
      </trkpt>
      <trkpt lat="43.62943" lon="6.26383">
        <ele>748.2</ele>
        <time>2023-02-20T10:32:07Z</time>
      </trkpt>
      <trkpt lat="43.62936" lon="6.26391">
        <ele>747.3</ele>
        <time>2023-02-20T10:32:19Z</time>
      </trkpt>
      <trkpt lat="43.62927" lon="6.26397">
        <ele>749</ele>
        <time>2023-02-20T10:32:32Z</time>
      </trkpt>
      <trkpt lat="43.6292" lon="6.26406">
        <ele>752.8</ele>
        <time>2023-02-20T10:32:43Z</time>
      </trkpt>
      <trkpt lat="43.62912" lon="6.26413">
        <ele>751.6</ele>
        <time>2023-02-20T10:32:55Z</time>
      </trkpt>
      <trkpt lat="43.62905" lon="6.26422">
        <ele>749.4</ele>
        <time>2023-02-20T10:33:08Z</time>
      </trkpt>
      <trkpt lat="43.62899" lon="6.26431">
        <ele>752.4</ele>
        <time>2023-02-20T10:33:19Z</time>
      </trkpt>
      <trkpt lat="43.62894" lon="6.26442">
        <ele>753.3</ele>
        <time>2023-02-20T10:33:31Z</time>
      </trkpt>
      <trkpt lat="43.6289" lon="6.26453">
        <ele>752.5</ele>
        <time>2023-02-20T10:33:41Z</time>
      </trkpt>
      <trkpt lat="43.62896" lon="6.26463">
        <ele>752.5</ele>
        <time>2023-02-20T10:34:54Z</time>
      </trkpt>
      <trkpt lat="43.62886" lon="6.26464">
        <ele>752.3</ele>
        <time>2023-02-20T10:35:20Z</time>
      </trkpt>
      <trkpt lat="43.62884" lon="6.26477">
        <ele>753.2</ele>
        <time>2023-02-20T10:35:30Z</time>
      </trkpt>
      <trkpt lat="43.62883" lon="6.2649">
        <ele>753.1</ele>
        <time>2023-02-20T10:35:38Z</time>
      </trkpt>
      <trkpt lat="43.62877" lon="6.265">
        <ele>753.6</ele>
        <time>2023-02-20T10:35:47Z</time>
      </trkpt>
      <trkpt lat="43.62869" lon="6.26506">
        <ele>754.3</ele>
        <time>2023-02-20T10:35:57Z</time>
      </trkpt>
      <trkpt lat="43.62861" lon="6.26513">
        <ele>754.7</ele>
        <time>2023-02-20T10:36:06Z</time>
      </trkpt>
      <trkpt lat="43.62854" lon="6.26521">
        <ele>754.4</ele>
        <time>2023-02-20T10:36:15Z</time>
      </trkpt>
      <trkpt lat="43.62847" lon="6.2653">
        <ele>754.7</ele>
        <time>2023-02-20T10:36:27Z</time>
      </trkpt>
      <trkpt lat="43.6284" lon="6.26538">
        <ele>755.3</ele>
        <time>2023-02-20T10:36:37Z</time>
      </trkpt>
      <trkpt lat="43.62835" lon="6.26548">
        <ele>755.9</ele>
        <time>2023-02-20T10:36:45Z</time>
      </trkpt>
      <trkpt lat="43.6283" lon="6.26559">
        <ele>756.1</ele>
        <time>2023-02-20T10:36:54Z</time>
      </trkpt>
      <trkpt lat="43.62823" lon="6.26569">
        <ele>757.1</ele>
        <time>2023-02-20T10:37:03Z</time>
      </trkpt>
      <trkpt lat="43.62815" lon="6.26574">
        <ele>757.8</ele>
        <time>2023-02-20T10:37:11Z</time>
      </trkpt>
      <trkpt lat="43.62805" lon="6.26579">
        <ele>758.4</ele>
        <time>2023-02-20T10:37:20Z</time>
      </trkpt>
      <trkpt lat="43.62797" lon="6.26585">
        <ele>756</ele>
        <time>2023-02-20T10:38:04Z</time>
      </trkpt>
      <trkpt lat="43.62788" lon="6.26588">
        <ele>758.8</ele>
        <time>2023-02-20T10:39:57Z</time>
      </trkpt>
      <trkpt lat="43.6278" lon="6.26594">
        <ele>759.1</ele>
        <time>2023-02-20T10:40:07Z</time>
      </trkpt>
      <trkpt lat="43.62772" lon="6.26601">
        <ele>759.7</ele>
        <time>2023-02-20T10:40:16Z</time>
      </trkpt>
      <trkpt lat="43.62762" lon="6.26604">
        <ele>759.8</ele>
        <time>2023-02-20T10:40:26Z</time>
      </trkpt>
      <trkpt lat="43.62753" lon="6.26604">
        <ele>760.1</ele>
        <time>2023-02-20T10:40:35Z</time>
      </trkpt>
      <trkpt lat="43.62744" lon="6.26601">
        <ele>760</ele>
        <time>2023-02-20T10:40:47Z</time>
      </trkpt>
      <trkpt lat="43.62734" lon="6.26599">
        <ele>760</ele>
        <time>2023-02-20T10:40:57Z</time>
      </trkpt>
      <trkpt lat="43.62725" lon="6.26597">
        <ele>759.9</ele>
        <time>2023-02-20T10:41:06Z</time>
      </trkpt>
      <trkpt lat="43.62715" lon="6.26595">
        <ele>759.8</ele>
        <time>2023-02-20T10:41:15Z</time>
      </trkpt>
      <trkpt lat="43.62705" lon="6.26595">
        <ele>760.2</ele>
        <time>2023-02-20T10:41:24Z</time>
      </trkpt>
      <trkpt lat="43.62696" lon="6.26599">
        <ele>760.6</ele>
        <time>2023-02-20T10:41:34Z</time>
      </trkpt>
      <trkpt lat="43.62688" lon="6.26605">
        <ele>756</ele>
        <time>2023-02-20T10:41:42Z</time>
      </trkpt>
      <trkpt lat="43.62679" lon="6.26609">
        <ele>760.8</ele>
        <time>2023-02-20T10:41:51Z</time>
      </trkpt>
      <trkpt lat="43.62669" lon="6.26607">
        <ele>759.3</ele>
        <time>2023-02-20T10:42:00Z</time>
      </trkpt>
      <trkpt lat="43.6266" lon="6.26606">
        <ele>761.1</ele>
        <time>2023-02-20T10:42:09Z</time>
      </trkpt>
      <trkpt lat="43.62651" lon="6.26603">
        <ele>759.7</ele>
        <time>2023-02-20T10:42:20Z</time>
      </trkpt>
      <trkpt lat="43.62644" lon="6.26595">
        <ele>762.5</ele>
        <time>2023-02-20T10:42:31Z</time>
      </trkpt>
      <trkpt lat="43.62636" lon="6.2659">
        <ele>759.3</ele>
        <time>2023-02-20T10:43:03Z</time>
      </trkpt>
      <trkpt lat="43.62628" lon="6.26584">
        <ele>758.7</ele>
        <time>2023-02-20T10:43:25Z</time>
      </trkpt>
      <trkpt lat="43.62637" lon="6.26588">
        <ele>760.4</ele>
        <time>2023-02-20T11:44:26Z</time>
      </trkpt>
      <trkpt lat="43.62638" lon="6.26576">
        <ele>760.3</ele>
        <time>2023-02-20T11:44:50Z</time>
      </trkpt>
      <trkpt lat="43.62637" lon="6.26563">
        <ele>759.1</ele>
        <time>2023-02-20T11:45:03Z</time>
      </trkpt>
      <trkpt lat="43.62632" lon="6.26551">
        <ele>755.2</ele>
        <time>2023-02-20T11:45:22Z</time>
      </trkpt>
      <trkpt lat="43.62628" lon="6.26539">
        <ele>757</ele>
        <time>2023-02-20T11:45:34Z</time>
      </trkpt>
      <trkpt lat="43.62623" lon="6.26529">
        <ele>755.8</ele>
        <time>2023-02-20T11:45:45Z</time>
      </trkpt>
      <trkpt lat="43.62625" lon="6.26516">
        <ele>752.4</ele>
        <time>2023-02-20T11:45:57Z</time>
      </trkpt>
      <trkpt lat="43.62621" lon="6.26503">
        <ele>751.1</ele>
        <time>2023-02-20T11:46:09Z</time>
      </trkpt>
      <trkpt lat="43.62621" lon="6.2649">
        <ele>750.2</ele>
        <time>2023-02-20T11:46:41Z</time>
      </trkpt>
      <trkpt lat="43.62621" lon="6.26477">
        <ele>747.6</ele>
        <time>2023-02-20T11:46:58Z</time>
      </trkpt>
      <trkpt lat="43.62618" lon="6.26465">
        <ele>745.4</ele>
        <time>2023-02-20T11:47:11Z</time>
      </trkpt>
      <trkpt lat="43.62612" lon="6.26455">
        <ele>744.1</ele>
        <time>2023-02-20T11:47:25Z</time>
      </trkpt>
      <trkpt lat="43.62606" lon="6.26444">
        <ele>741</ele>
        <time>2023-02-20T11:48:19Z</time>
      </trkpt>
      <trkpt lat="43.62601" lon="6.26434">
        <ele>739.9</ele>
        <time>2023-02-20T11:48:32Z</time>
      </trkpt>
      <trkpt lat="43.62593" lon="6.26427">
        <ele>737.8</ele>
        <time>2023-02-20T11:48:52Z</time>
      </trkpt>
      <trkpt lat="43.62585" lon="6.26419">
        <ele>734.8</ele>
        <time>2023-02-20T11:49:07Z</time>
      </trkpt>
      <trkpt lat="43.62578" lon="6.26411">
        <ele>733</ele>
        <time>2023-02-20T11:49:23Z</time>
      </trkpt>
      <trkpt lat="43.62571" lon="6.26403">
        <ele>732.6</ele>
        <time>2023-02-20T11:49:39Z</time>
      </trkpt>
      <trkpt lat="43.62564" lon="6.26397">
        <ele>729.9</ele>
        <time>2023-02-20T11:49:52Z</time>
      </trkpt>
      <trkpt lat="43.62558" lon="6.26387">
        <ele>728.5</ele>
        <time>2023-02-20T11:50:22Z</time>
      </trkpt>
      <trkpt lat="43.62554" lon="6.26375">
        <ele>725.5</ele>
        <time>2023-02-20T11:50:35Z</time>
      </trkpt>
      <trkpt lat="43.6255" lon="6.26363">
        <ele>724.9</ele>
        <time>2023-02-20T11:50:53Z</time>
      </trkpt>
      <trkpt lat="43.62547" lon="6.2635">
        <ele>722.7</ele>
        <time>2023-02-20T11:51:04Z</time>
      </trkpt>
      <trkpt lat="43.62542" lon="6.2634">
        <ele>717.2</ele>
        <time>2023-02-20T11:51:24Z</time>
      </trkpt>
      <trkpt lat="43.62536" lon="6.26331">
        <ele>718.3</ele>
        <time>2023-02-20T11:51:39Z</time>
      </trkpt>
      <trkpt lat="43.62529" lon="6.26324">
        <ele>717.7</ele>
        <time>2023-02-20T11:51:50Z</time>
      </trkpt>
      <trkpt lat="43.62521" lon="6.26317">
        <ele>717</ele>
        <time>2023-02-20T11:52:04Z</time>
      </trkpt>
      <trkpt lat="43.62512" lon="6.26311">
        <ele>711.9</ele>
        <time>2023-02-20T11:52:20Z</time>
      </trkpt>
      <trkpt lat="43.62505" lon="6.26303">
        <ele>711.8</ele>
        <time>2023-02-20T11:52:40Z</time>
      </trkpt>
      <trkpt lat="43.62503" lon="6.2629">
        <ele>712.9</ele>
        <time>2023-02-20T11:52:51Z</time>
      </trkpt>
      <trkpt lat="43.625" lon="6.26278">
        <ele>710.3</ele>
        <time>2023-02-20T11:53:02Z</time>
      </trkpt>
      <trkpt lat="43.625" lon="6.26265">
        <ele>709.4</ele>
        <time>2023-02-20T11:54:32Z</time>
      </trkpt>
      <trkpt lat="43.62496" lon="6.26254">
        <ele>708.7</ele>
        <time>2023-02-20T11:55:51Z</time>
      </trkpt>
      <trkpt lat="43.62496" lon="6.26241">
        <ele>707.9</ele>
        <time>2023-02-20T11:56:08Z</time>
      </trkpt>
      <trkpt lat="43.62499" lon="6.26228">
        <ele>706.3</ele>
        <time>2023-02-20T11:56:25Z</time>
      </trkpt>
      <trkpt lat="43.62498" lon="6.26215">
        <ele>703</ele>
        <time>2023-02-20T11:56:44Z</time>
      </trkpt>
      <trkpt lat="43.62497" lon="6.26203">
        <ele>704.4</ele>
        <time>2023-02-20T11:57:04Z</time>
      </trkpt>
      <trkpt lat="43.62497" lon="6.2619">
        <ele>701.7</ele>
        <time>2023-02-20T11:57:18Z</time>
      </trkpt>
      <trkpt lat="43.62499" lon="6.26177">
        <ele>699.5</ele>
        <time>2023-02-20T11:57:35Z</time>
      </trkpt>
      <trkpt lat="43.625" lon="6.26164">
        <ele>697</ele>
        <time>2023-02-20T11:57:48Z</time>
      </trkpt>
      <trkpt lat="43.62502" lon="6.26151">
        <ele>697.9</ele>
        <time>2023-02-20T11:58:01Z</time>
      </trkpt>
      <trkpt lat="43.62505" lon="6.26138">
        <ele>694.1</ele>
        <time>2023-02-20T11:58:20Z</time>
      </trkpt>
      <trkpt lat="43.62508" lon="6.26126">
        <ele>692.7</ele>
        <time>2023-02-20T11:58:30Z</time>
      </trkpt>
      <trkpt lat="43.6251" lon="6.26113">
        <ele>691.5</ele>
        <time>2023-02-20T11:58:43Z</time>
      </trkpt>
      <trkpt lat="43.6251" lon="6.261">
        <ele>690.2</ele>
        <time>2023-02-20T11:58:54Z</time>
      </trkpt>
      <trkpt lat="43.6251" lon="6.26087">
        <ele>688.3</ele>
        <time>2023-02-20T11:59:05Z</time>
      </trkpt>
      <trkpt lat="43.62512" lon="6.26075">
        <ele>685.4</ele>
        <time>2023-02-20T11:59:22Z</time>
      </trkpt>
      <trkpt lat="43.62513" lon="6.26062">
        <ele>684.5</ele>
        <time>2023-02-20T11:59:50Z</time>
      </trkpt>
      <trkpt lat="43.62516" lon="6.2605">
        <ele>685</ele>
        <time>2023-02-20T12:00:02Z</time>
      </trkpt>
      <trkpt lat="43.62517" lon="6.26037">
        <ele>679.6</ele>
        <time>2023-02-20T12:00:15Z</time>
      </trkpt>
      <trkpt lat="43.62522" lon="6.26026">
        <ele>680.5</ele>
        <time>2023-02-20T12:00:33Z</time>
      </trkpt>
      <trkpt lat="43.62521" lon="6.26014">
        <ele>678.7</ele>
        <time>2023-02-20T12:00:43Z</time>
      </trkpt>
      <trkpt lat="43.6252" lon="6.26">
        <ele>678.1</ele>
        <time>2023-02-20T12:00:54Z</time>
      </trkpt>
      <trkpt lat="43.62518" lon="6.25988">
        <ele>676</ele>
        <time>2023-02-20T12:01:05Z</time>
      </trkpt>
      <trkpt lat="43.62517" lon="6.25976">
        <ele>673.9</ele>
        <time>2023-02-20T12:01:20Z</time>
      </trkpt>
      <trkpt lat="43.62515" lon="6.25963">
        <ele>672.4</ele>
        <time>2023-02-20T12:01:31Z</time>
      </trkpt>
      <trkpt lat="43.62512" lon="6.25951">
        <ele>670.6</ele>
        <time>2023-02-20T12:01:41Z</time>
      </trkpt>
      <trkpt lat="43.62508" lon="6.25939">
        <ele>668.4</ele>
        <time>2023-02-20T12:01:58Z</time>
      </trkpt>
      <trkpt lat="43.62508" lon="6.25926">
        <ele>667.3</ele>
        <time>2023-02-20T12:03:11Z</time>
      </trkpt>
      <trkpt lat="43.6251" lon="6.25914">
        <ele>666.6</ele>
        <time>2023-02-20T12:03:20Z</time>
      </trkpt>
      <trkpt lat="43.62512" lon="6.25902">
        <ele>666</ele>
        <time>2023-02-20T12:03:29Z</time>
      </trkpt>
      <trkpt lat="43.62513" lon="6.25889">
        <ele>665.6</ele>
        <time>2023-02-20T12:03:37Z</time>
      </trkpt>
      <trkpt lat="43.62512" lon="6.25875">
        <ele>664.2</ele>
        <time>2023-02-20T12:03:46Z</time>
      </trkpt>
      <trkpt lat="43.62512" lon="6.25862">
        <ele>664.9</ele>
        <time>2023-02-20T12:03:55Z</time>
      </trkpt>
      <trkpt lat="43.62509" lon="6.2585">
        <ele>662</ele>
        <time>2023-02-20T12:04:02Z</time>
      </trkpt>
      <trkpt lat="43.62505" lon="6.25838">
        <ele>662.9</ele>
        <time>2023-02-20T12:04:14Z</time>
      </trkpt>
      <trkpt lat="43.62499" lon="6.25828">
        <ele>663</ele>
        <time>2023-02-20T12:04:24Z</time>
      </trkpt>
      <trkpt lat="43.62493" lon="6.25818">
        <ele>661.9</ele>
        <time>2023-02-20T12:04:35Z</time>
      </trkpt>
      <trkpt lat="43.6249" lon="6.25805">
        <ele>663.2</ele>
        <time>2023-02-20T12:04:47Z</time>
      </trkpt>
      <trkpt lat="43.62487" lon="6.25793">
        <ele>660.5</ele>
        <time>2023-02-20T12:05:01Z</time>
      </trkpt>
      <trkpt lat="43.62485" lon="6.2578">
        <ele>658.5</ele>
        <time>2023-02-20T12:05:11Z</time>
      </trkpt>
      <trkpt lat="43.62485" lon="6.25768">
        <ele>657.4</ele>
        <time>2023-02-20T12:05:20Z</time>
      </trkpt>
      <trkpt lat="43.62481" lon="6.25755">
        <ele>655.8</ele>
        <time>2023-02-20T12:05:29Z</time>
      </trkpt>
      <trkpt lat="43.6248" lon="6.25743">
        <ele>654.6</ele>
        <time>2023-02-20T12:05:42Z</time>
      </trkpt>
      <trkpt lat="43.62479" lon="6.2573">
        <ele>654.9</ele>
        <time>2023-02-20T12:05:56Z</time>
      </trkpt>
      <trkpt lat="43.6248" lon="6.25717">
        <ele>655.4</ele>
        <time>2023-02-20T12:06:05Z</time>
      </trkpt>
      <trkpt lat="43.62483" lon="6.25704">
        <ele>653.4</ele>
        <time>2023-02-20T12:06:16Z</time>
      </trkpt>
      <trkpt lat="43.62482" lon="6.25691">
        <ele>653.2</ele>
        <time>2023-02-20T12:06:29Z</time>
      </trkpt>
      <trkpt lat="43.6248" lon="6.25677">
        <ele>653.3</ele>
        <time>2023-02-20T12:06:40Z</time>
      </trkpt>
      <trkpt lat="43.62475" lon="6.25666">
        <ele>652.8</ele>
        <time>2023-02-20T12:06:51Z</time>
      </trkpt>
      <trkpt lat="43.62469" lon="6.25656">
        <ele>652.2</ele>
        <time>2023-02-20T12:07:02Z</time>
      </trkpt>
      <trkpt lat="43.62462" lon="6.25647">
        <ele>652.6</ele>
        <time>2023-02-20T12:07:18Z</time>
      </trkpt>
      <trkpt lat="43.6246" lon="6.25634">
        <ele>652</ele>
        <time>2023-02-20T12:07:33Z</time>
      </trkpt>
      <trkpt lat="43.6246" lon="6.25621">
        <ele>651.4</ele>
        <time>2023-02-20T12:07:58Z</time>
      </trkpt>
      <trkpt lat="43.62461" lon="6.25609">
        <ele>653</ele>
        <time>2023-02-20T12:08:10Z</time>
      </trkpt>
      <trkpt lat="43.62466" lon="6.25599">
        <ele>651.6</ele>
        <time>2023-02-20T12:09:17Z</time>
      </trkpt>
      <trkpt lat="43.62471" lon="6.25588">
        <ele>655.6</ele>
        <time>2023-02-20T12:09:41Z</time>
      </trkpt>
      <trkpt lat="43.62478" lon="6.2558">
        <ele>655.2</ele>
        <time>2023-02-20T12:10:01Z</time>
      </trkpt>
      <trkpt lat="43.62485" lon="6.25572">
        <ele>661.7</ele>
        <time>2023-02-20T12:10:20Z</time>
      </trkpt>
      <trkpt lat="43.6249" lon="6.25561">
        <ele>664.4</ele>
        <time>2023-02-20T12:10:36Z</time>
      </trkpt>
      <trkpt lat="43.62494" lon="6.25549">
        <ele>665</ele>
        <time>2023-02-20T12:10:49Z</time>
      </trkpt>
      <trkpt lat="43.62501" lon="6.25541">
        <ele>668</ele>
        <time>2023-02-20T12:11:18Z</time>
      </trkpt>
      <trkpt lat="43.62508" lon="6.25532">
        <ele>669.1</ele>
        <time>2023-02-20T12:11:33Z</time>
      </trkpt>
      <trkpt lat="43.62514" lon="6.25523">
        <ele>670.5</ele>
        <time>2023-02-20T12:11:53Z</time>
      </trkpt>
      <trkpt lat="43.62522" lon="6.25516">
        <ele>672.1</ele>
        <time>2023-02-20T12:12:09Z</time>
      </trkpt>
      <trkpt lat="43.62531" lon="6.25512">
        <ele>675.2</ele>
        <time>2023-02-20T12:12:38Z</time>
      </trkpt>
      <trkpt lat="43.62538" lon="6.25502">
        <ele>675.6</ele>
        <time>2023-02-20T12:12:51Z</time>
      </trkpt>
      <trkpt lat="43.62543" lon="6.25492">
        <ele>675.1</ele>
        <time>2023-02-20T12:13:05Z</time>
      </trkpt>
      <trkpt lat="43.62549" lon="6.25482">
        <ele>676.7</ele>
        <time>2023-02-20T12:13:22Z</time>
      </trkpt>
      <trkpt lat="43.62553" lon="6.25471">
        <ele>678.7</ele>
        <time>2023-02-20T12:13:40Z</time>
      </trkpt>
      <trkpt lat="43.62559" lon="6.25462">
        <ele>678.5</ele>
        <time>2023-02-20T12:14:09Z</time>
      </trkpt>
      <trkpt lat="43.62565" lon="6.25451">
        <ele>679.3</ele>
        <time>2023-02-20T12:14:34Z</time>
      </trkpt>
      <trkpt lat="43.62573" lon="6.25444">
        <ele>681.1</ele>
        <time>2023-02-20T12:14:48Z</time>
      </trkpt>
      <trkpt lat="43.62577" lon="6.25433">
        <ele>683.1</ele>
        <time>2023-02-20T12:15:06Z</time>
      </trkpt>
      <trkpt lat="43.6258" lon="6.2542">
        <ele>684</ele>
        <time>2023-02-20T12:15:26Z</time>
      </trkpt>
      <trkpt lat="43.62582" lon="6.25408">
        <ele>686</ele>
        <time>2023-02-20T12:15:43Z</time>
      </trkpt>
      <trkpt lat="43.62584" lon="6.25396">
        <ele>687.5</ele>
        <time>2023-02-20T12:16:00Z</time>
      </trkpt>
      <trkpt lat="43.62585" lon="6.25383">
        <ele>688.8</ele>
        <time>2023-02-20T12:16:34Z</time>
      </trkpt>
      <trkpt lat="43.62587" lon="6.2537">
        <ele>689</ele>
        <time>2023-02-20T12:16:50Z</time>
      </trkpt>
      <trkpt lat="43.62588" lon="6.25357">
        <ele>691</ele>
        <time>2023-02-20T12:17:03Z</time>
      </trkpt>
      <trkpt lat="43.62582" lon="6.25348">
        <ele>690.4</ele>
        <time>2023-02-20T12:17:36Z</time>
      </trkpt>
      <trkpt lat="43.62581" lon="6.25336">
        <ele>687.1</ele>
        <time>2023-02-20T12:18:51Z</time>
      </trkpt>
      <trkpt lat="43.62575" lon="6.25326">
        <ele>685.9</ele>
        <time>2023-02-20T12:21:10Z</time>
      </trkpt>
      <trkpt lat="43.62569" lon="6.25317">
        <ele>684.7</ele>
        <time>2023-02-20T12:21:35Z</time>
      </trkpt>
      <trkpt lat="43.62561" lon="6.2531">
        <ele>681.8</ele>
        <time>2023-02-20T12:21:59Z</time>
      </trkpt>
      <trkpt lat="43.62553" lon="6.25303">
        <ele>680</ele>
        <time>2023-02-20T12:22:19Z</time>
      </trkpt>
      <trkpt lat="43.62546" lon="6.25295">
        <ele>677.6</ele>
        <time>2023-02-20T12:22:33Z</time>
      </trkpt>
      <trkpt lat="43.62537" lon="6.25294">
        <ele>674.8</ele>
        <time>2023-02-20T12:22:47Z</time>
      </trkpt>
      <trkpt lat="43.6253" lon="6.25285">
        <ele>669.8</ele>
        <time>2023-02-20T12:23:43Z</time>
      </trkpt>
      <trkpt lat="43.62536" lon="6.25275">
        <ele>669.4</ele>
        <time>2023-02-20T12:24:10Z</time>
      </trkpt>
      <trkpt lat="43.62537" lon="6.25263">
        <ele>669.2</ele>
        <time>2023-02-20T12:24:34Z</time>
      </trkpt>
      <trkpt lat="43.62543" lon="6.25253">
        <ele>669.1</ele>
        <time>2023-02-20T12:25:37Z</time>
      </trkpt>
      <trkpt lat="43.62551" lon="6.25246">
        <ele>669.1</ele>
        <time>2023-02-20T12:25:50Z</time>
      </trkpt>
      <trkpt lat="43.62559" lon="6.2524">
        <ele>669.3</ele>
        <time>2023-02-20T12:26:01Z</time>
      </trkpt>
      <trkpt lat="43.62568" lon="6.25236">
        <ele>669.8</ele>
        <time>2023-02-20T12:26:11Z</time>
      </trkpt>
      <trkpt lat="43.62577" lon="6.25233">
        <ele>670.1</ele>
        <time>2023-02-20T12:26:21Z</time>
      </trkpt>
      <trkpt lat="43.62586" lon="6.25229">
        <ele>670.2</ele>
        <time>2023-02-20T12:26:30Z</time>
      </trkpt>
      <trkpt lat="43.62595" lon="6.25224">
        <ele>671.2</ele>
        <time>2023-02-20T12:26:43Z</time>
      </trkpt>
      <trkpt lat="43.62604" lon="6.25219">
        <ele>671.7</ele>
        <time>2023-02-20T12:26:52Z</time>
      </trkpt>
      <trkpt lat="43.62612" lon="6.25213">
        <ele>672.1</ele>
        <time>2023-02-20T12:27:01Z</time>
      </trkpt>
      <trkpt lat="43.62618" lon="6.25202">
        <ele>672.5</ele>
        <time>2023-02-20T12:27:12Z</time>
      </trkpt>
      <trkpt lat="43.62618" lon="6.25189">
        <ele>673.1</ele>
        <time>2023-02-20T12:27:26Z</time>
      </trkpt>
      <trkpt lat="43.62613" lon="6.25179">
        <ele>673.4</ele>
        <time>2023-02-20T12:27:36Z</time>
      </trkpt>
      <trkpt lat="43.62608" lon="6.25169">
        <ele>674.1</ele>
        <time>2023-02-20T12:27:44Z</time>
      </trkpt>
      <trkpt lat="43.62602" lon="6.25158">
        <ele>674.6</ele>
        <time>2023-02-20T12:27:54Z</time>
      </trkpt>
      <trkpt lat="43.62598" lon="6.25146">
        <ele>675.3</ele>
        <time>2023-02-20T12:28:08Z</time>
      </trkpt>
      <trkpt lat="43.62594" lon="6.25135">
        <ele>675.4</ele>
        <time>2023-02-20T12:28:17Z</time>
      </trkpt>
      <trkpt lat="43.62592" lon="6.25122">
        <ele>675.9</ele>
        <time>2023-02-20T12:28:26Z</time>
      </trkpt>
      <trkpt lat="43.62589" lon="6.25109">
        <ele>676.4</ele>
        <time>2023-02-20T12:28:36Z</time>
      </trkpt>
      <trkpt lat="43.62586" lon="6.25097">
        <ele>677</ele>
        <time>2023-02-20T12:28:46Z</time>
      </trkpt>
      <trkpt lat="43.62587" lon="6.25084">
        <ele>677.4</ele>
        <time>2023-02-20T12:28:56Z</time>
      </trkpt>
      <trkpt lat="43.62591" lon="6.25073">
        <ele>677.9</ele>
        <time>2023-02-20T12:29:07Z</time>
      </trkpt>
      <trkpt lat="43.62599" lon="6.25068">
        <ele>678.5</ele>
        <time>2023-02-20T12:29:25Z</time>
      </trkpt>
      <trkpt lat="43.62609" lon="6.25067">
        <ele>678.7</ele>
        <time>2023-02-20T12:29:36Z</time>
      </trkpt>
      <trkpt lat="43.62618" lon="6.25065">
        <ele>679.1</ele>
        <time>2023-02-20T12:29:48Z</time>
      </trkpt>
      <trkpt lat="43.62627" lon="6.25062">
        <ele>679.4</ele>
        <time>2023-02-20T12:30:03Z</time>
      </trkpt>
      <trkpt lat="43.62636" lon="6.25059">
        <ele>679.8</ele>
        <time>2023-02-20T12:30:13Z</time>
      </trkpt>
      <trkpt lat="43.62645" lon="6.25055">
        <ele>680.4</ele>
        <time>2023-02-20T12:30:22Z</time>
      </trkpt>
      <trkpt lat="43.62654" lon="6.25051">
        <ele>680.8</ele>
        <time>2023-02-20T12:30:36Z</time>
      </trkpt>
      <trkpt lat="43.62664" lon="6.2505">
        <ele>681.1</ele>
        <time>2023-02-20T12:30:51Z</time>
      </trkpt>
      <trkpt lat="43.62672" lon="6.25046">
        <ele>681.4</ele>
        <time>2023-02-20T12:31:03Z</time>
      </trkpt>
      <trkpt lat="43.62681" lon="6.25045">
        <ele>681.4</ele>
        <time>2023-02-20T12:31:13Z</time>
      </trkpt>
      <trkpt lat="43.6269" lon="6.25043">
        <ele>681.4</ele>
        <time>2023-02-20T12:31:22Z</time>
      </trkpt>
      <trkpt lat="43.62699" lon="6.25038">
        <ele>681.1</ele>
        <time>2023-02-20T12:31:31Z</time>
      </trkpt>
      <trkpt lat="43.62706" lon="6.25029">
        <ele>680.8</ele>
        <time>2023-02-20T12:31:39Z</time>
      </trkpt>
      <trkpt lat="43.62708" lon="6.25015">
        <ele>680.6</ele>
        <time>2023-02-20T12:31:48Z</time>
      </trkpt>
      <trkpt lat="43.62706" lon="6.25003">
        <ele>680.3</ele>
        <time>2023-02-20T12:31:56Z</time>
      </trkpt>
      <trkpt lat="43.627" lon="6.24993">
        <ele>680.4</ele>
        <time>2023-02-20T12:32:07Z</time>
      </trkpt>
      <trkpt lat="43.62695" lon="6.24982">
        <ele>680.6</ele>
        <time>2023-02-20T12:32:17Z</time>
      </trkpt>
      <trkpt lat="43.6269" lon="6.24971">
        <ele>680</ele>
        <time>2023-02-20T12:32:29Z</time>
      </trkpt>
      <trkpt lat="43.62684" lon="6.24961">
        <ele>679.9</ele>
        <time>2023-02-20T12:32:39Z</time>
      </trkpt>
      <trkpt lat="43.62678" lon="6.24951">
        <ele>680</ele>
        <time>2023-02-20T12:32:49Z</time>
      </trkpt>
      <trkpt lat="43.62672" lon="6.2494">
        <ele>680.3</ele>
        <time>2023-02-20T12:33:01Z</time>
      </trkpt>
      <trkpt lat="43.62668" lon="6.24928">
        <ele>680</ele>
        <time>2023-02-20T12:33:13Z</time>
      </trkpt>
      <trkpt lat="43.62664" lon="6.24917">
        <ele>680.2</ele>
        <time>2023-02-20T12:33:23Z</time>
      </trkpt>
      <trkpt lat="43.62665" lon="6.24903">
        <ele>679.5</ele>
        <time>2023-02-20T12:33:38Z</time>
      </trkpt>
      <trkpt lat="43.62667" lon="6.24889">
        <ele>679.7</ele>
        <time>2023-02-20T12:33:48Z</time>
      </trkpt>
      <trkpt lat="43.62672" lon="6.24878">
        <ele>679.9</ele>
        <time>2023-02-20T12:33:58Z</time>
      </trkpt>
      <trkpt lat="43.62676" lon="6.24867">
        <ele>680.2</ele>
        <time>2023-02-20T12:34:07Z</time>
      </trkpt>
      <trkpt lat="43.62682" lon="6.24857">
        <ele>680.4</ele>
        <time>2023-02-20T12:34:16Z</time>
      </trkpt>
      <trkpt lat="43.6269" lon="6.2485">
        <ele>680.7</ele>
        <time>2023-02-20T12:34:26Z</time>
      </trkpt>
      <trkpt lat="43.62698" lon="6.24844">
        <ele>680.9</ele>
        <time>2023-02-20T12:34:35Z</time>
      </trkpt>
      <trkpt lat="43.62707" lon="6.24839">
        <ele>681.1</ele>
        <time>2023-02-20T12:34:44Z</time>
      </trkpt>
      <trkpt lat="43.62715" lon="6.24833">
        <ele>680.7</ele>
        <time>2023-02-20T12:34:53Z</time>
      </trkpt>
      <trkpt lat="43.62723" lon="6.24827">
        <ele>680.5</ele>
        <time>2023-02-20T12:35:03Z</time>
      </trkpt>
      <trkpt lat="43.62728" lon="6.24815">
        <ele>680.1</ele>
        <time>2023-02-20T12:35:13Z</time>
      </trkpt>
      <trkpt lat="43.62729" lon="6.24801">
        <ele>681.1</ele>
        <time>2023-02-20T12:35:23Z</time>
      </trkpt>
      <trkpt lat="43.62731" lon="6.24788">
        <ele>681.1</ele>
        <time>2023-02-20T12:35:33Z</time>
      </trkpt>
      <trkpt lat="43.62733" lon="6.24776">
        <ele>681.1</ele>
        <time>2023-02-20T12:35:43Z</time>
      </trkpt>
      <trkpt lat="43.62739" lon="6.24766">
        <ele>681.3</ele>
        <time>2023-02-20T12:35:55Z</time>
      </trkpt>
      <trkpt lat="43.62746" lon="6.24758">
        <ele>681.2</ele>
        <time>2023-02-20T12:36:05Z</time>
      </trkpt>
      <trkpt lat="43.62756" lon="6.24753">
        <ele>681</ele>
        <time>2023-02-20T12:36:14Z</time>
      </trkpt>
      <trkpt lat="43.62765" lon="6.24751">
        <ele>680.4</ele>
        <time>2023-02-20T12:36:27Z</time>
      </trkpt>
      <trkpt lat="43.62772" lon="6.24743">
        <ele>680.4</ele>
        <time>2023-02-20T12:37:01Z</time>
      </trkpt>
      <trkpt lat="43.62781" lon="6.24739">
        <ele>681.5</ele>
        <time>2023-02-20T12:37:58Z</time>
      </trkpt>
      <trkpt lat="43.62789" lon="6.24732">
        <ele>681.5</ele>
        <time>2023-02-20T12:38:08Z</time>
      </trkpt>
      <trkpt lat="43.62798" lon="6.24726">
        <ele>680.8</ele>
        <time>2023-02-20T12:38:18Z</time>
      </trkpt>
      <trkpt lat="43.62804" lon="6.24717">
        <ele>680.9</ele>
        <time>2023-02-20T12:38:29Z</time>
      </trkpt>
      <trkpt lat="43.62806" lon="6.24704">
        <ele>680.5</ele>
        <time>2023-02-20T12:38:40Z</time>
      </trkpt>
      <trkpt lat="43.62802" lon="6.24692">
        <ele>680.5</ele>
        <time>2023-02-20T12:38:50Z</time>
      </trkpt>
      <trkpt lat="43.628" lon="6.2468">
        <ele>680.3</ele>
        <time>2023-02-20T12:39:00Z</time>
      </trkpt>
      <trkpt lat="43.62797" lon="6.24667">
        <ele>679.9</ele>
        <time>2023-02-20T12:39:10Z</time>
      </trkpt>
      <trkpt lat="43.62796" lon="6.24655">
        <ele>679.3</ele>
        <time>2023-02-20T12:39:20Z</time>
      </trkpt>
      <trkpt lat="43.62794" lon="6.24642">
        <ele>677.4</ele>
        <time>2023-02-20T12:39:30Z</time>
      </trkpt>
      <trkpt lat="43.62793" lon="6.24629">
        <ele>678.2</ele>
        <time>2023-02-20T12:39:40Z</time>
      </trkpt>
      <trkpt lat="43.62793" lon="6.24616">
        <ele>680.2</ele>
        <time>2023-02-20T12:39:51Z</time>
      </trkpt>
      <trkpt lat="43.62791" lon="6.24603">
        <ele>679.9</ele>
        <time>2023-02-20T12:40:00Z</time>
      </trkpt>
      <trkpt lat="43.62787" lon="6.24592">
        <ele>680.2</ele>
        <time>2023-02-20T12:40:10Z</time>
      </trkpt>
      <trkpt lat="43.62779" lon="6.24584">
        <ele>679.9</ele>
        <time>2023-02-20T12:40:19Z</time>
      </trkpt>
      <trkpt lat="43.6277" lon="6.24582">
        <ele>679.9</ele>
        <time>2023-02-20T12:40:32Z</time>
      </trkpt>
      <trkpt lat="43.62761" lon="6.24584">
        <ele>679.9</ele>
        <time>2023-02-20T12:40:41Z</time>
      </trkpt>
      <trkpt lat="43.62751" lon="6.24584">
        <ele>679.7</ele>
        <time>2023-02-20T12:40:51Z</time>
      </trkpt>
      <trkpt lat="43.62742" lon="6.24582">
        <ele>679.6</ele>
        <time>2023-02-20T12:41:00Z</time>
      </trkpt>
      <trkpt lat="43.62732" lon="6.24578">
        <ele>679.3</ele>
        <time>2023-02-20T12:41:10Z</time>
      </trkpt>
      <trkpt lat="43.62726" lon="6.24568">
        <ele>678.8</ele>
        <time>2023-02-20T12:41:21Z</time>
      </trkpt>
      <trkpt lat="43.62719" lon="6.24559">
        <ele>678.3</ele>
        <time>2023-02-20T12:41:30Z</time>
      </trkpt>
      <trkpt lat="43.62712" lon="6.2455">
        <ele>678.1</ele>
        <time>2023-02-20T12:41:39Z</time>
      </trkpt>
      <trkpt lat="43.62704" lon="6.24544">
        <ele>678.1</ele>
        <time>2023-02-20T12:41:50Z</time>
      </trkpt>
      <trkpt lat="43.62696" lon="6.24538">
        <ele>678</ele>
        <time>2023-02-20T12:42:01Z</time>
      </trkpt>
      <trkpt lat="43.62688" lon="6.2453">
        <ele>677.7</ele>
        <time>2023-02-20T12:42:11Z</time>
      </trkpt>
      <trkpt lat="43.6268" lon="6.24523">
        <ele>677.5</ele>
        <time>2023-02-20T12:42:20Z</time>
      </trkpt>
      <trkpt lat="43.62672" lon="6.24516">
        <ele>677.9</ele>
        <time>2023-02-20T12:42:30Z</time>
      </trkpt>
      <trkpt lat="43.62664" lon="6.24506">
        <ele>677</ele>
        <time>2023-02-20T12:42:43Z</time>
      </trkpt>
      <trkpt lat="43.62657" lon="6.24498">
        <ele>676.9</ele>
        <time>2023-02-20T12:42:53Z</time>
      </trkpt>
      <trkpt lat="43.62652" lon="6.24487">
        <ele>676.6</ele>
        <time>2023-02-20T12:43:03Z</time>
      </trkpt>
      <trkpt lat="43.62646" lon="6.24477">
        <ele>676</ele>
        <time>2023-02-20T12:43:12Z</time>
      </trkpt>
      <trkpt lat="43.62639" lon="6.24468">
        <ele>675.9</ele>
        <time>2023-02-20T12:43:22Z</time>
      </trkpt>
      <trkpt lat="43.62633" lon="6.24459">
        <ele>675</ele>
        <time>2023-02-20T12:43:32Z</time>
      </trkpt>
      <trkpt lat="43.62626" lon="6.24451">
        <ele>675</ele>
        <time>2023-02-20T12:43:41Z</time>
      </trkpt>
      <trkpt lat="43.62619" lon="6.24441">
        <ele>674.4</ele>
        <time>2023-02-20T12:43:50Z</time>
      </trkpt>
      <trkpt lat="43.62614" lon="6.24431">
        <ele>674.2</ele>
        <time>2023-02-20T12:44:00Z</time>
      </trkpt>
      <trkpt lat="43.62609" lon="6.24419">
        <ele>674.2</ele>
        <time>2023-02-20T12:44:10Z</time>
      </trkpt>
      <trkpt lat="43.62603" lon="6.24408">
        <ele>673.9</ele>
        <time>2023-02-20T12:44:20Z</time>
      </trkpt>
      <trkpt lat="43.62596" lon="6.24399">
        <ele>673.8</ele>
        <time>2023-02-20T12:44:29Z</time>
      </trkpt>
      <trkpt lat="43.6259" lon="6.24389">
        <ele>673.7</ele>
        <time>2023-02-20T12:44:38Z</time>
      </trkpt>
      <trkpt lat="43.62585" lon="6.24378">
        <ele>673.6</ele>
        <time>2023-02-20T12:44:48Z</time>
      </trkpt>
      <trkpt lat="43.62581" lon="6.24365">
        <ele>673.6</ele>
        <time>2023-02-20T12:44:57Z</time>
      </trkpt>
      <trkpt lat="43.62578" lon="6.24352">
        <ele>673.9</ele>
        <time>2023-02-20T12:45:06Z</time>
      </trkpt>
      <trkpt lat="43.62575" lon="6.24339">
        <ele>673.9</ele>
        <time>2023-02-20T12:45:16Z</time>
      </trkpt>
      <trkpt lat="43.62572" lon="6.24326">
        <ele>674.2</ele>
        <time>2023-02-20T12:45:27Z</time>
      </trkpt>
      <trkpt lat="43.62572" lon="6.24313">
        <ele>674.1</ele>
        <time>2023-02-20T12:45:38Z</time>
      </trkpt>
      <trkpt lat="43.62576" lon="6.24301">
        <ele>674</ele>
        <time>2023-02-20T12:45:49Z</time>
      </trkpt>
      <trkpt lat="43.62581" lon="6.24291">
        <ele>674.1</ele>
        <time>2023-02-20T12:45:58Z</time>
      </trkpt>
      <trkpt lat="43.62585" lon="6.2428">
        <ele>674.2</ele>
        <time>2023-02-20T12:46:09Z</time>
      </trkpt>
      <trkpt lat="43.6259" lon="6.24269">
        <ele>674.3</ele>
        <time>2023-02-20T12:46:20Z</time>
      </trkpt>
      <trkpt lat="43.62594" lon="6.24257">
        <ele>674.2</ele>
        <time>2023-02-20T12:46:34Z</time>
      </trkpt>
      <trkpt lat="43.626" lon="6.24247">
        <ele>673.7</ele>
        <time>2023-02-20T12:46:51Z</time>
      </trkpt>
      <trkpt lat="43.62608" lon="6.24241">
        <ele>673.1</ele>
        <time>2023-02-20T12:47:10Z</time>
      </trkpt>
      <trkpt lat="43.62613" lon="6.24231">
        <ele>672.9</ele>
        <time>2023-02-20T12:53:24Z</time>
      </trkpt>
      <trkpt lat="43.6262" lon="6.24222">
        <ele>671.5</ele>
        <time>2023-02-20T12:53:36Z</time>
      </trkpt>
      <trkpt lat="43.62628" lon="6.24214">
        <ele>671.2</ele>
        <time>2023-02-20T12:53:48Z</time>
      </trkpt>
      <trkpt lat="43.62636" lon="6.24208">
        <ele>671</ele>
        <time>2023-02-20T12:54:03Z</time>
      </trkpt>
      <trkpt lat="43.62645" lon="6.24205">
        <ele>670.9</ele>
        <time>2023-02-20T12:54:12Z</time>
      </trkpt>
      <trkpt lat="43.62653" lon="6.242">
        <ele>670.7</ele>
        <time>2023-02-20T12:54:23Z</time>
      </trkpt>
      <trkpt lat="43.62662" lon="6.24198">
        <ele>670</ele>
        <time>2023-02-20T12:54:33Z</time>
      </trkpt>
      <trkpt lat="43.62671" lon="6.24195">
        <ele>669</ele>
        <time>2023-02-20T12:54:43Z</time>
      </trkpt>
      <trkpt lat="43.62681" lon="6.24196">
        <ele>669.3</ele>
        <time>2023-02-20T12:54:53Z</time>
      </trkpt>
      <trkpt lat="43.6269" lon="6.24196">
        <ele>668.3</ele>
        <time>2023-02-20T12:55:03Z</time>
      </trkpt>
      <trkpt lat="43.62699" lon="6.24195">
        <ele>667.9</ele>
        <time>2023-02-20T12:55:12Z</time>
      </trkpt>
      <trkpt lat="43.62709" lon="6.24192">
        <ele>668.5</ele>
        <time>2023-02-20T12:55:23Z</time>
      </trkpt>
      <trkpt lat="43.62718" lon="6.24191">
        <ele>668.4</ele>
        <time>2023-02-20T12:55:32Z</time>
      </trkpt>
      <trkpt lat="43.62727" lon="6.24193">
        <ele>668.8</ele>
        <time>2023-02-20T12:55:43Z</time>
      </trkpt>
      <trkpt lat="43.62736" lon="6.24196">
        <ele>668.9</ele>
        <time>2023-02-20T12:56:02Z</time>
      </trkpt>
      <trkpt lat="43.62745" lon="6.24198">
        <ele>671.2</ele>
        <time>2023-02-20T12:56:12Z</time>
      </trkpt>
      <trkpt lat="43.62755" lon="6.24202">
        <ele>670.7</ele>
        <time>2023-02-20T12:56:24Z</time>
      </trkpt>
      <trkpt lat="43.62764" lon="6.24206">
        <ele>670.7</ele>
        <time>2023-02-20T12:56:34Z</time>
      </trkpt>
      <trkpt lat="43.62773" lon="6.24211">
        <ele>669.4</ele>
        <time>2023-02-20T12:56:46Z</time>
      </trkpt>
      <trkpt lat="43.62782" lon="6.24212">
        <ele>667.8</ele>
        <time>2023-02-20T12:57:00Z</time>
      </trkpt>
      <trkpt lat="43.62792" lon="6.24213">
        <ele>667.7</ele>
        <time>2023-02-20T12:57:13Z</time>
      </trkpt>
      <trkpt lat="43.62801" lon="6.24215">
        <ele>667.4</ele>
        <time>2023-02-20T12:57:23Z</time>
      </trkpt>
      <trkpt lat="43.62811" lon="6.24215">
        <ele>667.1</ele>
        <time>2023-02-20T12:57:33Z</time>
      </trkpt>
      <trkpt lat="43.62821" lon="6.24211">
        <ele>667</ele>
        <time>2023-02-20T12:57:43Z</time>
      </trkpt>
      <trkpt lat="43.62829" lon="6.24204">
        <ele>666.8</ele>
        <time>2023-02-20T12:57:52Z</time>
      </trkpt>
      <trkpt lat="43.62836" lon="6.24196">
        <ele>666.8</ele>
        <time>2023-02-20T12:58:02Z</time>
      </trkpt>
      <trkpt lat="43.6284" lon="6.24185">
        <ele>666.8</ele>
        <time>2023-02-20T12:58:13Z</time>
      </trkpt>
      <trkpt lat="43.62835" lon="6.24174">
        <ele>666.9</ele>
        <time>2023-02-20T12:58:27Z</time>
      </trkpt>
      <trkpt lat="43.62828" lon="6.24166">
        <ele>666.9</ele>
        <time>2023-02-20T12:58:37Z</time>
      </trkpt>
      <trkpt lat="43.62822" lon="6.24156">
        <ele>666.9</ele>
        <time>2023-02-20T12:58:47Z</time>
      </trkpt>
      <trkpt lat="43.62818" lon="6.24144">
        <ele>666.7</ele>
        <time>2023-02-20T12:58:56Z</time>
      </trkpt>
      <trkpt lat="43.62817" lon="6.24131">
        <ele>667.5</ele>
        <time>2023-02-20T12:59:19Z</time>
      </trkpt>
      <trkpt lat="43.62815" lon="6.24119">
        <ele>667.3</ele>
        <time>2023-02-20T12:59:29Z</time>
      </trkpt>
      <trkpt lat="43.62814" lon="6.24106">
        <ele>666.7</ele>
        <time>2023-02-20T12:59:39Z</time>
      </trkpt>
      <trkpt lat="43.62812" lon="6.24093">
        <ele>666.3</ele>
        <time>2023-02-20T12:59:59Z</time>
      </trkpt>
      <trkpt lat="43.6281" lon="6.24081">
        <ele>666.4</ele>
        <time>2023-02-20T13:00:08Z</time>
      </trkpt>
      <trkpt lat="43.62809" lon="6.24068">
        <ele>666.4</ele>
        <time>2023-02-20T13:00:17Z</time>
      </trkpt>
      <trkpt lat="43.62806" lon="6.24055">
        <ele>666.3</ele>
        <time>2023-02-20T13:00:27Z</time>
      </trkpt>
      <trkpt lat="43.62801" lon="6.24044">
        <ele>666.5</ele>
        <time>2023-02-20T13:00:37Z</time>
      </trkpt>
      <trkpt lat="43.62796" lon="6.24033">
        <ele>667.1</ele>
        <time>2023-02-20T13:00:46Z</time>
      </trkpt>
      <trkpt lat="43.62791" lon="6.24022">
        <ele>666.4</ele>
        <time>2023-02-20T13:00:54Z</time>
      </trkpt>
      <trkpt lat="43.62789" lon="6.2401">
        <ele>665.4</ele>
        <time>2023-02-20T13:01:02Z</time>
      </trkpt>
      <trkpt lat="43.62787" lon="6.23997">
        <ele>664.9</ele>
        <time>2023-02-20T13:01:11Z</time>
      </trkpt>
      <trkpt lat="43.62789" lon="6.23984">
        <ele>665.7</ele>
        <time>2023-02-20T13:01:20Z</time>
      </trkpt>
      <trkpt lat="43.62792" lon="6.23971">
        <ele>666.3</ele>
        <time>2023-02-20T13:01:29Z</time>
      </trkpt>
      <trkpt lat="43.62797" lon="6.2396">
        <ele>666.3</ele>
        <time>2023-02-20T13:01:39Z</time>
      </trkpt>
      <trkpt lat="43.62803" lon="6.2395">
        <ele>666.3</ele>
        <time>2023-02-20T13:01:49Z</time>
      </trkpt>
      <trkpt lat="43.6281" lon="6.23941">
        <ele>666.8</ele>
        <time>2023-02-20T13:01:59Z</time>
      </trkpt>
      <trkpt lat="43.62816" lon="6.23933">
        <ele>667</ele>
        <time>2023-02-20T13:02:08Z</time>
      </trkpt>
      <trkpt lat="43.62824" lon="6.23925">
        <ele>666.7</ele>
        <time>2023-02-20T13:02:17Z</time>
      </trkpt>
      <trkpt lat="43.62832" lon="6.23918">
        <ele>667</ele>
        <time>2023-02-20T13:02:26Z</time>
      </trkpt>
      <trkpt lat="43.62841" lon="6.2391">
        <ele>667.9</ele>
        <time>2023-02-20T13:02:35Z</time>
      </trkpt>
      <trkpt lat="43.62848" lon="6.23901">
        <ele>668.8</ele>
        <time>2023-02-20T13:02:44Z</time>
      </trkpt>
      <trkpt lat="43.62858" lon="6.23897">
        <ele>667.8</ele>
        <time>2023-02-20T13:02:54Z</time>
      </trkpt>
      <trkpt lat="43.62867" lon="6.23896">
        <ele>667</ele>
        <time>2023-02-20T13:03:05Z</time>
      </trkpt>
      <trkpt lat="43.62877" lon="6.23897">
        <ele>667.3</ele>
        <time>2023-02-20T13:03:14Z</time>
      </trkpt>
      <trkpt lat="43.62885" lon="6.23901">
        <ele>667.5</ele>
        <time>2023-02-20T13:03:23Z</time>
      </trkpt>
      <trkpt lat="43.62894" lon="6.23906">
        <ele>667.6</ele>
        <time>2023-02-20T13:03:33Z</time>
      </trkpt>
      <trkpt lat="43.62902" lon="6.23913">
        <ele>667.6</ele>
        <time>2023-02-20T13:03:42Z</time>
      </trkpt>
      <trkpt lat="43.62911" lon="6.23918">
        <ele>667.5</ele>
        <time>2023-02-20T13:03:51Z</time>
      </trkpt>
      <trkpt lat="43.62919" lon="6.23923">
        <ele>667.5</ele>
        <time>2023-02-20T13:04:04Z</time>
      </trkpt>
      <trkpt lat="43.62929" lon="6.23923">
        <ele>667.3</ele>
        <time>2023-02-20T13:04:14Z</time>
      </trkpt>
      <trkpt lat="43.62937" lon="6.23916">
        <ele>667.3</ele>
        <time>2023-02-20T13:04:27Z</time>
      </trkpt>
      <trkpt lat="43.62944" lon="6.23907">
        <ele>667.3</ele>
        <time>2023-02-20T13:04:36Z</time>
      </trkpt>
      <trkpt lat="43.62952" lon="6.23901">
        <ele>667.3</ele>
        <time>2023-02-20T13:04:45Z</time>
      </trkpt>
      <trkpt lat="43.62961" lon="6.239">
        <ele>667.4</ele>
        <time>2023-02-20T13:04:54Z</time>
      </trkpt>
      <trkpt lat="43.62971" lon="6.239">
        <ele>667.4</ele>
        <time>2023-02-20T13:05:03Z</time>
      </trkpt>
      <trkpt lat="43.6298" lon="6.239">
        <ele>667.2</ele>
        <time>2023-02-20T13:05:12Z</time>
      </trkpt>
      <trkpt lat="43.62989" lon="6.23895">
        <ele>667.1</ele>
        <time>2023-02-20T13:05:21Z</time>
      </trkpt>
      <trkpt lat="43.62982" lon="6.23887">
        <ele>663.5</ele>
        <time>2023-02-20T13:07:28Z</time>
      </trkpt>
      <trkpt lat="43.62972" lon="6.23883">
        <ele>662</ele>
        <time>2023-02-20T13:07:44Z</time>
      </trkpt>
      <trkpt lat="43.62964" lon="6.23878">
        <ele>659.5</ele>
        <time>2023-02-20T13:08:10Z</time>
      </trkpt>
      <trkpt lat="43.62956" lon="6.2387">
        <ele>657</ele>
        <time>2023-02-20T13:08:29Z</time>
      </trkpt>
      <trkpt lat="43.62948" lon="6.23865">
        <ele>653.8</ele>
        <time>2023-02-20T13:08:47Z</time>
      </trkpt>
      <trkpt lat="43.62939" lon="6.23859">
        <ele>652.3</ele>
        <time>2023-02-20T13:09:03Z</time>
      </trkpt>
      <trkpt lat="43.62931" lon="6.23854">
        <ele>650.6</ele>
        <time>2023-02-20T13:09:16Z</time>
      </trkpt>
      <trkpt lat="43.62922" lon="6.23848">
        <ele>649.5</ele>
        <time>2023-02-20T13:09:25Z</time>
      </trkpt>
      <trkpt lat="43.62915" lon="6.23839">
        <ele>647.5</ele>
        <time>2023-02-20T13:09:37Z</time>
      </trkpt>
      <trkpt lat="43.62908" lon="6.23831">
        <ele>645.6</ele>
        <time>2023-02-20T13:09:48Z</time>
      </trkpt>
      <trkpt lat="43.62901" lon="6.23822">
        <ele>643.4</ele>
        <time>2023-02-20T13:10:01Z</time>
      </trkpt>
      <trkpt lat="43.62895" lon="6.23812">
        <ele>641.5</ele>
        <time>2023-02-20T13:10:15Z</time>
      </trkpt>
      <trkpt lat="43.6289" lon="6.23801">
        <ele>639.8</ele>
        <time>2023-02-20T13:10:27Z</time>
      </trkpt>
      <trkpt lat="43.62886" lon="6.2379">
        <ele>638</ele>
        <time>2023-02-20T13:10:41Z</time>
      </trkpt>
      <trkpt lat="43.6288" lon="6.23779">
        <ele>636.6</ele>
        <time>2023-02-20T13:10:52Z</time>
      </trkpt>
      <trkpt lat="43.62875" lon="6.23767">
        <ele>635.1</ele>
        <time>2023-02-20T13:11:05Z</time>
      </trkpt>
      <trkpt lat="43.6287" lon="6.23756">
        <ele>633.8</ele>
        <time>2023-02-20T13:11:16Z</time>
      </trkpt>
      <trkpt lat="43.62866" lon="6.23744">
        <ele>632.4</ele>
        <time>2023-02-20T13:11:29Z</time>
      </trkpt>
      <trkpt lat="43.62862" lon="6.23732">
        <ele>630.4</ele>
        <time>2023-02-20T13:11:46Z</time>
      </trkpt>
      <trkpt lat="43.62857" lon="6.23721">
        <ele>629.1</ele>
        <time>2023-02-20T13:11:58Z</time>
      </trkpt>
      <trkpt lat="43.62851" lon="6.23712">
        <ele>627.5</ele>
        <time>2023-02-20T13:12:14Z</time>
      </trkpt>
      <trkpt lat="43.6285" lon="6.23699">
        <ele>626.1</ele>
        <time>2023-02-20T13:12:27Z</time>
      </trkpt>
      <trkpt lat="43.62849" lon="6.23686">
        <ele>625.7</ele>
        <time>2023-02-20T13:16:24Z</time>
      </trkpt>
      <trkpt lat="43.6285" lon="6.23674">
        <ele>623.3</ele>
        <time>2023-02-20T13:17:41Z</time>
      </trkpt>
      <trkpt lat="43.62853" lon="6.23661">
        <ele>622.6</ele>
        <time>2023-02-20T13:17:57Z</time>
      </trkpt>
      <trkpt lat="43.62858" lon="6.23651">
        <ele>619.2</ele>
        <time>2023-02-20T13:18:12Z</time>
      </trkpt>
      <trkpt lat="43.62866" lon="6.23642">
        <ele>617.8</ele>
        <time>2023-02-20T13:18:30Z</time>
      </trkpt>
      <trkpt lat="43.62871" lon="6.23631">
        <ele>616.8</ele>
        <time>2023-02-20T13:18:46Z</time>
      </trkpt>
      <trkpt lat="43.62869" lon="6.23619">
        <ele>614.8</ele>
        <time>2023-02-20T13:19:02Z</time>
      </trkpt>
      <trkpt lat="43.62866" lon="6.23607">
        <ele>613.2</ele>
        <time>2023-02-20T13:19:16Z</time>
      </trkpt>
      <trkpt lat="43.6286" lon="6.23596">
        <ele>611.3</ele>
        <time>2023-02-20T13:19:32Z</time>
      </trkpt>
      <trkpt lat="43.62854" lon="6.23586">
        <ele>609</ele>
        <time>2023-02-20T13:19:47Z</time>
      </trkpt>
      <trkpt lat="43.62852" lon="6.23573">
        <ele>607.2</ele>
        <time>2023-02-20T13:20:00Z</time>
      </trkpt>
      <trkpt lat="43.6285" lon="6.2356">
        <ele>605.1</ele>
        <time>2023-02-20T13:20:14Z</time>
      </trkpt>
      <trkpt lat="43.62849" lon="6.23547">
        <ele>604.1</ele>
        <time>2023-02-20T13:20:33Z</time>
      </trkpt>
      <trkpt lat="43.6285" lon="6.23535">
        <ele>603</ele>
        <time>2023-02-20T13:20:49Z</time>
      </trkpt>
      <trkpt lat="43.62845" lon="6.23523">
        <ele>601.8</ele>
        <time>2023-02-20T13:22:07Z</time>
      </trkpt>
      <trkpt lat="43.62838" lon="6.23514">
        <ele>599.2</ele>
        <time>2023-02-20T13:22:25Z</time>
      </trkpt>
      <trkpt lat="43.62832" lon="6.23504">
        <ele>598.4</ele>
        <time>2023-02-20T13:22:36Z</time>
      </trkpt>
      <trkpt lat="43.62826" lon="6.23493">
        <ele>598.1</ele>
        <time>2023-02-20T13:22:51Z</time>
      </trkpt>
      <trkpt lat="43.62819" lon="6.23485">
        <ele>596.2</ele>
        <time>2023-02-20T13:23:03Z</time>
      </trkpt>
      <trkpt lat="43.62812" lon="6.23477">
        <ele>596.9</ele>
        <time>2023-02-20T13:23:33Z</time>
      </trkpt>
      <trkpt lat="43.62804" lon="6.23484">
        <ele>597.3</ele>
        <time>2023-02-20T13:23:47Z</time>
      </trkpt>
      <trkpt lat="43.62795" lon="6.23487">
        <ele>599.6</ele>
        <time>2023-02-20T13:23:57Z</time>
      </trkpt>
      <trkpt lat="43.62789" lon="6.23478">
        <ele>596.8</ele>
        <time>2023-02-20T13:24:08Z</time>
      </trkpt>
      <trkpt lat="43.62783" lon="6.23467">
        <ele>596.2</ele>
        <time>2023-02-20T13:24:20Z</time>
      </trkpt>
      <trkpt lat="43.62782" lon="6.23455">
        <ele>594.9</ele>
        <time>2023-02-20T13:24:34Z</time>
      </trkpt>
      <trkpt lat="43.62784" lon="6.23442">
        <ele>592.8</ele>
        <time>2023-02-20T13:24:51Z</time>
      </trkpt>
      <trkpt lat="43.62789" lon="6.23431">
        <ele>591.2</ele>
        <time>2023-02-20T13:25:04Z</time>
      </trkpt>
      <trkpt lat="43.62788" lon="6.23418">
        <ele>589.8</ele>
        <time>2023-02-20T13:25:20Z</time>
      </trkpt>
      <trkpt lat="43.62783" lon="6.23407">
        <ele>588.5</ele>
        <time>2023-02-20T13:25:35Z</time>
      </trkpt>
      <trkpt lat="43.62779" lon="6.23396">
        <ele>587</ele>
        <time>2023-02-20T13:25:51Z</time>
      </trkpt>
      <trkpt lat="43.62776" lon="6.23383">
        <ele>585.4</ele>
        <time>2023-02-20T13:26:04Z</time>
      </trkpt>
      <trkpt lat="43.62778" lon="6.2337">
        <ele>584</ele>
        <time>2023-02-20T13:26:26Z</time>
      </trkpt>
      <trkpt lat="43.62785" lon="6.23363">
        <ele>586.1</ele>
        <time>2023-02-20T13:27:37Z</time>
      </trkpt>
      <trkpt lat="43.62793" lon="6.23356">
        <ele>584</ele>
        <time>2023-02-20T13:29:24Z</time>
      </trkpt>
      <trkpt lat="43.62796" lon="6.23344">
        <ele>581.8</ele>
        <time>2023-02-20T13:30:07Z</time>
      </trkpt>
      <trkpt lat="43.62796" lon="6.23331">
        <ele>581.2</ele>
        <time>2023-02-20T13:30:23Z</time>
      </trkpt>
      <trkpt lat="43.62796" lon="6.23318">
        <ele>580.2</ele>
        <time>2023-02-20T13:30:37Z</time>
      </trkpt>
      <trkpt lat="43.62798" lon="6.23306">
        <ele>580.2</ele>
        <time>2023-02-20T13:30:50Z</time>
      </trkpt>
      <trkpt lat="43.62803" lon="6.23295">
        <ele>580.4</ele>
        <time>2023-02-20T13:31:04Z</time>
      </trkpt>
      <trkpt lat="43.62809" lon="6.23286">
        <ele>580</ele>
        <time>2023-02-20T13:31:16Z</time>
      </trkpt>
      <trkpt lat="43.62817" lon="6.23278">
        <ele>579.8</ele>
        <time>2023-02-20T13:31:27Z</time>
      </trkpt>
      <trkpt lat="43.62822" lon="6.23267">
        <ele>579.2</ele>
        <time>2023-02-20T13:32:48Z</time>
      </trkpt>
      <trkpt lat="43.6283" lon="6.23261">
        <ele>580.5</ele>
        <time>2023-02-20T13:35:44Z</time>
      </trkpt>
      <trkpt lat="43.6284" lon="6.23262">
        <ele>579.5</ele>
        <time>2023-02-20T13:36:00Z</time>
      </trkpt>
      <trkpt lat="43.62848" lon="6.23258">
        <ele>580.5</ele>
        <time>2023-02-20T13:36:23Z</time>
      </trkpt>
      <trkpt lat="43.62858" lon="6.23257">
        <ele>580.5</ele>
        <time>2023-02-20T13:36:43Z</time>
      </trkpt>
      <trkpt lat="43.62867" lon="6.2326">
        <ele>581.2</ele>
        <time>2023-02-20T13:37:22Z</time>
      </trkpt>
      <trkpt lat="43.62873" lon="6.2325">
        <ele>582.1</ele>
        <time>2023-02-20T13:38:07Z</time>
      </trkpt>
      <trkpt lat="43.62862" lon="6.23308">
        <ele>583</ele>
        <time>2023-02-20T13:39:04Z</time>
      </trkpt>
      <trkpt lat="43.6287" lon="6.23259">
        <ele>583.6</ele>
        <time>2023-02-20T13:39:12Z</time>
      </trkpt>
      <trkpt lat="43.62867" lon="6.23247">
        <ele>581.8</ele>
        <time>2023-02-20T13:39:29Z</time>
      </trkpt>
      <trkpt lat="43.62875" lon="6.23241">
        <ele>580</ele>
        <time>2023-02-20T13:40:21Z</time>
      </trkpt>
      <trkpt lat="43.62882" lon="6.23234">
        <ele>577.8</ele>
        <time>2023-02-20T13:41:15Z</time>
      </trkpt>
      <trkpt lat="43.62891" lon="6.2323">
        <ele>578.4</ele>
        <time>2023-02-20T13:41:30Z</time>
      </trkpt>
      <trkpt lat="43.62895" lon="6.23214">
        <ele>582.4</ele>
        <time>2023-02-20T13:42:06Z</time>
      </trkpt>
      <trkpt lat="43.62915" lon="6.23224">
        <ele>580</ele>
        <time>2023-02-20T13:42:24Z</time>
      </trkpt>
      <trkpt lat="43.62903" lon="6.23195">
        <ele>582</ele>
        <time>2023-02-20T13:43:54Z</time>
      </trkpt>
      <trkpt lat="43.62902" lon="6.23208">
        <ele>581</ele>
        <time>2023-02-20T13:44:32Z</time>
      </trkpt>
      <trkpt lat="43.62892" lon="6.2321">
        <ele>580.1</ele>
        <time>2023-02-20T13:44:47Z</time>
      </trkpt>
      <trkpt lat="43.62882" lon="6.23213">
        <ele>579.6</ele>
        <time>2023-02-20T13:45:01Z</time>
      </trkpt>
      <trkpt lat="43.62878" lon="6.23224">
        <ele>578.7</ele>
        <time>2023-02-20T13:45:11Z</time>
      </trkpt>
      <trkpt lat="43.62874" lon="6.23237">
        <ele>579</ele>
        <time>2023-02-20T13:45:22Z</time>
      </trkpt>
      <trkpt lat="43.62874" lon="6.23249">
        <ele>580.6</ele>
        <time>2023-02-20T13:46:13Z</time>
      </trkpt>
      <trkpt lat="43.62883" lon="6.23251">
        <ele>579.6</ele>
        <time>2023-02-20T13:46:42Z</time>
      </trkpt>
      <trkpt lat="43.62887" lon="6.2324">
        <ele>578.8</ele>
        <time>2023-02-20T13:47:33Z</time>
      </trkpt>
      <trkpt lat="43.62887" lon="6.23226">
        <ele>578.5</ele>
        <time>2023-02-20T13:47:52Z</time>
      </trkpt>
      <trkpt lat="43.62897" lon="6.23224">
        <ele>580</ele>
        <time>2023-02-20T13:48:23Z</time>
      </trkpt>
      <trkpt lat="43.62903" lon="6.23235">
        <ele>579.3</ele>
        <time>2023-02-20T13:48:32Z</time>
      </trkpt>
      <trkpt lat="43.6291" lon="6.23244">
        <ele>578.6</ele>
        <time>2023-02-20T13:48:48Z</time>
      </trkpt>
      <trkpt lat="43.62918" lon="6.23249">
        <ele>578.3</ele>
        <time>2023-02-20T13:48:59Z</time>
      </trkpt>
      <trkpt lat="43.62926" lon="6.23242">
        <ele>578.9</ele>
        <time>2023-02-20T13:49:49Z</time>
      </trkpt>
      <trkpt lat="43.62916" lon="6.23239">
        <ele>578.5</ele>
        <time>2023-02-20T13:51:23Z</time>
      </trkpt>
      <trkpt lat="43.62908" lon="6.23246">
        <ele>578.3</ele>
        <time>2023-02-20T13:52:50Z</time>
      </trkpt>
      <trkpt lat="43.62918" lon="6.23242">
        <ele>578.6</ele>
        <time>2023-02-20T13:54:35Z</time>
      </trkpt>
      <trkpt lat="43.62928" lon="6.23244">
        <ele>577.8</ele>
        <time>2023-02-20T13:54:52Z</time>
      </trkpt>
      <trkpt lat="43.62937" lon="6.2324">
        <ele>577.7</ele>
        <time>2023-02-20T13:55:07Z</time>
      </trkpt>
      <trkpt lat="43.62946" lon="6.23235">
        <ele>577.8</ele>
        <time>2023-02-20T13:55:22Z</time>
      </trkpt>
      <trkpt lat="43.62954" lon="6.23227">
        <ele>578.3</ele>
        <time>2023-02-20T13:55:39Z</time>
      </trkpt>
      <trkpt lat="43.62958" lon="6.23216">
        <ele>578.1</ele>
        <time>2023-02-20T13:55:51Z</time>
      </trkpt>
      <trkpt lat="43.62966" lon="6.23206">
        <ele>578.8</ele>
        <time>2023-02-20T13:56:05Z</time>
      </trkpt>
      <trkpt lat="43.62974" lon="6.23197">
        <ele>579.7</ele>
        <time>2023-02-20T13:56:15Z</time>
      </trkpt>
      <trkpt lat="43.62983" lon="6.23194">
        <ele>580.9</ele>
        <time>2023-02-20T13:56:44Z</time>
      </trkpt>
      <trkpt lat="43.62985" lon="6.23182">
        <ele>582.5</ele>
        <time>2023-02-20T13:57:01Z</time>
      </trkpt>
      <trkpt lat="43.62989" lon="6.2317">
        <ele>583.9</ele>
        <time>2023-02-20T13:57:13Z</time>
      </trkpt>
      <trkpt lat="43.62959" lon="6.2312">
        <ele>588</ele>
        <time>2023-02-20T13:57:57Z</time>
      </trkpt>
      <trkpt lat="43.62943" lon="6.23097">
        <ele>589</ele>
        <time>2023-02-20T13:58:22Z</time>
      </trkpt>
      <trkpt lat="43.6296" lon="6.23121">
        <ele>590</ele>
        <time>2023-02-20T13:58:27Z</time>
      </trkpt>
      <trkpt lat="43.6297" lon="6.23123">
        <ele>590.2</ele>
        <time>2023-02-20T13:58:29Z</time>
      </trkpt>
      <trkpt lat="43.62981" lon="6.23127">
        <ele>590.6</ele>
        <time>2023-02-20T13:58:33Z</time>
      </trkpt>
      <trkpt lat="43.62989" lon="6.23134">
        <ele>591</ele>
        <time>2023-02-20T13:58:37Z</time>
      </trkpt>
      <trkpt lat="43.62999" lon="6.23137">
        <ele>591.7</ele>
        <time>2023-02-20T13:58:46Z</time>
      </trkpt>
      <trkpt lat="43.63004" lon="6.23148">
        <ele>592.4</ele>
        <time>2023-02-20T14:00:54Z</time>
      </trkpt>
      <trkpt lat="43.63006" lon="6.23161">
        <ele>592.3</ele>
        <time>2023-02-20T14:02:22Z</time>
      </trkpt>
      <trkpt lat="43.63014" lon="6.23168">
        <ele>590.7</ele>
        <time>2023-02-20T14:06:05Z</time>
      </trkpt>
      <trkpt lat="43.63015" lon="6.23156">
        <ele>589.7</ele>
        <time>2023-02-20T14:07:59Z</time>
      </trkpt>
      <trkpt lat="43.63005" lon="6.23156">
        <ele>586.6</ele>
        <time>2023-02-20T14:09:36Z</time>
      </trkpt>
      <trkpt lat="43.62996" lon="6.23149">
        <ele>584</ele>
        <time>2023-02-20T14:09:58Z</time>
      </trkpt>
      <trkpt lat="43.62996" lon="6.23136">
        <ele>580.2</ele>
        <time>2023-02-20T14:12:46Z</time>
      </trkpt>
      <trkpt lat="43.62996" lon="6.23123">
        <ele>579.9</ele>
        <time>2023-02-20T14:12:59Z</time>
      </trkpt>
      <trkpt lat="43.62994" lon="6.2311">
        <ele>579.7</ele>
        <time>2023-02-20T14:13:08Z</time>
      </trkpt>
      <trkpt lat="43.6299" lon="6.23099">
        <ele>579.6</ele>
        <time>2023-02-20T14:13:18Z</time>
      </trkpt>
      <trkpt lat="43.62985" lon="6.23088">
        <ele>579.5</ele>
        <time>2023-02-20T14:13:29Z</time>
      </trkpt>
      <trkpt lat="43.62979" lon="6.23077">
        <ele>579.3</ele>
        <time>2023-02-20T14:13:37Z</time>
      </trkpt>
      <trkpt lat="43.62973" lon="6.23067">
        <ele>579.3</ele>
        <time>2023-02-20T14:13:43Z</time>
      </trkpt>
      <trkpt lat="43.62973" lon="6.23054">
        <ele>579.4</ele>
        <time>2023-02-20T14:13:52Z</time>
      </trkpt>
      <trkpt lat="43.62981" lon="6.23047">
        <ele>581.2</ele>
        <time>2023-02-20T14:14:18Z</time>
      </trkpt>
      <trkpt lat="43.62985" lon="6.23034">
        <ele>583.6</ele>
        <time>2023-02-20T14:14:32Z</time>
      </trkpt>
      <trkpt lat="43.62984" lon="6.23022">
        <ele>584.5</ele>
        <time>2023-02-20T14:14:50Z</time>
      </trkpt>
      <trkpt lat="43.62975" lon="6.23024">
        <ele>585.5</ele>
        <time>2023-02-20T14:15:22Z</time>
      </trkpt>
      <trkpt lat="43.62985" lon="6.23024">
        <ele>586.9</ele>
        <time>2023-02-20T14:17:16Z</time>
      </trkpt>
      <trkpt lat="43.62994" lon="6.23021">
        <ele>585.6</ele>
        <time>2023-02-20T14:17:37Z</time>
      </trkpt>
      <trkpt lat="43.63" lon="6.23012">
        <ele>584.5</ele>
        <time>2023-02-20T14:19:22Z</time>
      </trkpt>
      <trkpt lat="43.62991" lon="6.23008">
        <ele>584.6</ele>
        <time>2023-02-20T14:19:56Z</time>
      </trkpt>
      <trkpt lat="43.62984" lon="6.23">
        <ele>582.4</ele>
        <time>2023-02-20T14:20:44Z</time>
      </trkpt>
      <trkpt lat="43.62977" lon="6.22992">
        <ele>579.3</ele>
        <time>2023-02-20T14:21:13Z</time>
      </trkpt>
      <trkpt lat="43.6297" lon="6.23002">
        <ele>579</ele>
        <time>2023-02-20T14:21:46Z</time>
      </trkpt>
      <trkpt lat="43.62963" lon="6.23009">
        <ele>580</ele>
        <time>2023-02-20T14:22:00Z</time>
      </trkpt>
      <trkpt lat="43.62954" lon="6.23005">
        <ele>578.9</ele>
        <time>2023-02-20T14:22:59Z</time>
      </trkpt>
      <trkpt lat="43.62948" lon="6.22995">
        <ele>577.7</ele>
        <time>2023-02-20T14:24:44Z</time>
      </trkpt>
      <trkpt lat="43.62939" lon="6.22988">
        <ele>576.6</ele>
        <time>2023-02-20T14:24:57Z</time>
      </trkpt>
      <trkpt lat="43.62931" lon="6.22983">
        <ele>575.3</ele>
        <time>2023-02-20T14:25:09Z</time>
      </trkpt>
      <trkpt lat="43.62923" lon="6.22978">
        <ele>573.9</ele>
        <time>2023-02-20T14:25:20Z</time>
      </trkpt>
      <trkpt lat="43.62914" lon="6.22973">
        <ele>571.7</ele>
        <time>2023-02-20T14:25:41Z</time>
      </trkpt>
      <trkpt lat="43.62905" lon="6.22967">
        <ele>570</ele>
        <time>2023-02-20T14:26:01Z</time>
      </trkpt>
      <trkpt lat="43.62897" lon="6.22962">
        <ele>568.9</ele>
        <time>2023-02-20T14:26:12Z</time>
      </trkpt>
      <trkpt lat="43.62889" lon="6.22954">
        <ele>568</ele>
        <time>2023-02-20T14:26:30Z</time>
      </trkpt>
      <trkpt lat="43.62883" lon="6.22944">
        <ele>566.3</ele>
        <time>2023-02-20T14:26:46Z</time>
      </trkpt>
      <trkpt lat="43.62874" lon="6.2294">
        <ele>564.6</ele>
        <time>2023-02-20T14:26:57Z</time>
      </trkpt>
      <trkpt lat="43.62864" lon="6.22942">
        <ele>563.7</ele>
        <time>2023-02-20T14:27:54Z</time>
      </trkpt>
      <trkpt lat="43.62856" lon="6.22934">
        <ele>564.2</ele>
        <time>2023-02-20T14:28:06Z</time>
      </trkpt>
      <trkpt lat="43.62854" lon="6.22921">
        <ele>559.9</ele>
        <time>2023-02-20T14:28:22Z</time>
      </trkpt>
      <trkpt lat="43.62854" lon="6.22908">
        <ele>557.2</ele>
        <time>2023-02-20T14:28:36Z</time>
      </trkpt>
      <trkpt lat="43.62853" lon="6.22895">
        <ele>554.7</ele>
        <time>2023-02-20T14:28:48Z</time>
      </trkpt>
      <trkpt lat="43.6285" lon="6.22883">
        <ele>553</ele>
        <time>2023-02-20T14:28:58Z</time>
      </trkpt>
      <trkpt lat="43.62849" lon="6.22869">
        <ele>552</ele>
        <time>2023-02-20T14:29:11Z</time>
      </trkpt>
      <trkpt lat="43.62851" lon="6.22857">
        <ele>549.8</ele>
        <time>2023-02-20T14:29:22Z</time>
      </trkpt>
      <trkpt lat="43.62855" lon="6.22845">
        <ele>547.8</ele>
        <time>2023-02-20T14:29:35Z</time>
      </trkpt>
      <trkpt lat="43.62855" lon="6.22832">
        <ele>545.2</ele>
        <time>2023-02-20T14:29:51Z</time>
      </trkpt>
      <trkpt lat="43.6285" lon="6.22821">
        <ele>542</ele>
        <time>2023-02-20T14:30:15Z</time>
      </trkpt>
      <trkpt lat="43.62854" lon="6.22809">
        <ele>541.4</ele>
        <time>2023-02-20T14:30:29Z</time>
      </trkpt>
      <trkpt lat="43.62862" lon="6.22801">
        <ele>540</ele>
        <time>2023-02-20T14:30:43Z</time>
      </trkpt>
      <trkpt lat="43.62868" lon="6.22792">
        <ele>538.5</ele>
        <time>2023-02-20T14:30:55Z</time>
      </trkpt>
      <trkpt lat="43.62868" lon="6.22779">
        <ele>537.2</ele>
        <time>2023-02-20T14:31:07Z</time>
      </trkpt>
      <trkpt lat="43.62861" lon="6.22771">
        <ele>535.8</ele>
        <time>2023-02-20T14:31:20Z</time>
      </trkpt>
      <trkpt lat="43.62857" lon="6.22759">
        <ele>534.6</ele>
        <time>2023-02-20T14:31:30Z</time>
      </trkpt>
      <trkpt lat="43.62851" lon="6.22748">
        <ele>533.4</ele>
        <time>2023-02-20T14:31:40Z</time>
      </trkpt>
      <trkpt lat="43.62846" lon="6.22737">
        <ele>532.1</ele>
        <time>2023-02-20T14:31:51Z</time>
      </trkpt>
      <trkpt lat="43.6284" lon="6.22726">
        <ele>531.1</ele>
        <time>2023-02-20T14:32:00Z</time>
      </trkpt>
      <trkpt lat="43.62834" lon="6.22716">
        <ele>530.1</ele>
        <time>2023-02-20T14:32:09Z</time>
      </trkpt>
      <trkpt lat="43.6283" lon="6.22703">
        <ele>529.1</ele>
        <time>2023-02-20T14:32:19Z</time>
      </trkpt>
      <trkpt lat="43.62827" lon="6.22692">
        <ele>528.3</ele>
        <time>2023-02-20T14:32:29Z</time>
      </trkpt>
      <trkpt lat="43.62826" lon="6.22679">
        <ele>528.1</ele>
        <time>2023-02-20T14:35:22Z</time>
      </trkpt>
      <trkpt lat="43.6282" lon="6.22669">
        <ele>527.8</ele>
        <time>2023-02-20T14:35:34Z</time>
      </trkpt>
      <trkpt lat="43.62814" lon="6.22659">
        <ele>527.4</ele>
        <time>2023-02-20T14:35:46Z</time>
      </trkpt>
      <trkpt lat="43.62808" lon="6.22649">
        <ele>526.8</ele>
        <time>2023-02-20T14:36:14Z</time>
      </trkpt>
      <trkpt lat="43.628" lon="6.22641">
        <ele>526</ele>
        <time>2023-02-20T14:36:24Z</time>
      </trkpt>
      <trkpt lat="43.6279" lon="6.22631">
        <ele>523</ele>
        <time>2023-02-20T14:36:37Z</time>
      </trkpt>
      <trkpt lat="43.62782" lon="6.22622">
        <ele>522</ele>
        <time>2023-02-20T14:36:49Z</time>
      </trkpt>
      <trkpt lat="43.62773" lon="6.22615">
        <ele>520</ele>
        <time>2023-02-20T14:37:04Z</time>
      </trkpt>
      <trkpt lat="43.62766" lon="6.22607">
        <ele>519.9</ele>
        <time>2023-02-20T14:37:22Z</time>
      </trkpt>
      <trkpt lat="43.62758" lon="6.22598">
        <ele>519.1</ele>
        <time>2023-02-20T14:37:32Z</time>
      </trkpt>
      <trkpt lat="43.62749" lon="6.22603">
        <ele>518.2</ele>
        <time>2023-02-20T14:37:46Z</time>
      </trkpt>
      <trkpt lat="43.62747" lon="6.22615">
        <ele>517.9</ele>
        <time>2023-02-20T14:37:58Z</time>
      </trkpt>
      <trkpt lat="43.62737" lon="6.22614">
        <ele>517.7</ele>
        <time>2023-02-20T14:38:58Z</time>
      </trkpt>
      <trkpt lat="43.62734" lon="6.22602">
        <ele>517.6</ele>
        <time>2023-02-20T14:39:11Z</time>
      </trkpt>
      <trkpt lat="43.62726" lon="6.22594">
        <ele>517.3</ele>
        <time>2023-02-20T14:39:22Z</time>
      </trkpt>
      <trkpt lat="43.62719" lon="6.22586">
        <ele>516.9</ele>
        <time>2023-02-20T14:39:35Z</time>
      </trkpt>
      <trkpt lat="43.62712" lon="6.22577">
        <ele>516.4</ele>
        <time>2023-02-20T14:39:44Z</time>
      </trkpt>
      <trkpt lat="43.62705" lon="6.22568">
        <ele>516.1</ele>
        <time>2023-02-20T14:39:53Z</time>
      </trkpt>
      <trkpt lat="43.62697" lon="6.2256">
        <ele>515.8</ele>
        <time>2023-02-20T14:40:03Z</time>
      </trkpt>
      <trkpt lat="43.62687" lon="6.2256">
        <ele>515.3</ele>
        <time>2023-02-20T14:40:13Z</time>
      </trkpt>
      <trkpt lat="43.62678" lon="6.22558">
        <ele>514.9</ele>
        <time>2023-02-20T14:40:23Z</time>
      </trkpt>
      <trkpt lat="43.6267" lon="6.22551">
        <ele>514.5</ele>
        <time>2023-02-20T14:40:32Z</time>
      </trkpt>
      <trkpt lat="43.62663" lon="6.22542">
        <ele>514.3</ele>
        <time>2023-02-20T14:40:42Z</time>
      </trkpt>
      <trkpt lat="43.62655" lon="6.22534">
        <ele>514.5</ele>
        <time>2023-02-20T14:40:52Z</time>
      </trkpt>
      <trkpt lat="43.62649" lon="6.22524">
        <ele>514.8</ele>
        <time>2023-02-20T14:41:02Z</time>
      </trkpt>
      <trkpt lat="43.6264" lon="6.22522">
        <ele>515.3</ele>
        <time>2023-02-20T14:41:16Z</time>
      </trkpt>
      <trkpt lat="43.62635" lon="6.22532">
        <ele>515.5</ele>
        <time>2023-02-20T14:41:55Z</time>
      </trkpt>
      <trkpt lat="43.62627" lon="6.22539">
        <ele>515.3</ele>
        <time>2023-02-20T14:42:04Z</time>
      </trkpt>
      <trkpt lat="43.62624" lon="6.2255">
        <ele>514.4</ele>
        <time>2023-02-20T14:42:16Z</time>
      </trkpt>
      <trkpt lat="43.62628" lon="6.22562">
        <ele>513.8</ele>
        <time>2023-02-20T14:42:26Z</time>
      </trkpt>
      <trkpt lat="43.6263" lon="6.22575">
        <ele>513.5</ele>
        <time>2023-02-20T14:42:35Z</time>
      </trkpt>
      <trkpt lat="43.62622" lon="6.22583">
        <ele>513.2</ele>
        <time>2023-02-20T14:42:46Z</time>
      </trkpt>
      <trkpt lat="43.62613" lon="6.22586">
        <ele>513.1</ele>
        <time>2023-02-20T14:42:56Z</time>
      </trkpt>
      <trkpt lat="43.62621" lon="6.22581">
        <ele>512.7</ele>
        <time>2023-02-20T14:43:38Z</time>
      </trkpt>
      <trkpt lat="43.6263" lon="6.22583">
        <ele>512.9</ele>
        <time>2023-02-20T14:43:48Z</time>
      </trkpt>
      <trkpt lat="43.62622" lon="6.22577">
        <ele>511.8</ele>
        <time>2023-02-20T14:46:23Z</time>
      </trkpt>
      <trkpt lat="43.62631" lon="6.22574">
        <ele>510.7</ele>
        <time>2023-02-20T14:46:42Z</time>
      </trkpt>
      <trkpt lat="43.6263" lon="6.22577">
        <ele>511.8</ele>
        <time>2023-02-20T14:47:50Z</time>
      </trkpt>
    </trkseg>
  </trk>
</gpx>